Observation data for Hobbs on 02/22/2019      Previous  Date  Next       Current Mesonet Observations  Soil Data  Daily Summary Page  Observations in Plain Language
KHO1 220600Z 13008KT 06/00 A2984 RMK A01 T00630003  RH  065%=      5-min Rain = 0
KHO1 220601Z 13010KT 06/00 A2983 RMK A01 T00630004  RH  066%=      5-min Rain = 0
KHO1 220602Z 13011KT 06/00 A2983 RMK A01 T00630004  RH  066%=      5-min Rain = 0
KHO1 220603Z 12010KT 06/01 A2983 RMK A01 T00630005  RH  066%=      5-min Rain = 0
KHO1 220604Z 13010KT 06/01 A2983 RMK A01 T00630005  RH  066%=      5-min Rain = 0
KHO1 220605Z 13010KT 06/00 A2984 RMK A01 T00620004  RH  066%=      5-min Rain = 0
KHO1 220606Z 13009KT 06/00 A2984 RMK A01 T00610003  RH  066%=      5-min Rain = 0
KHO1 220607Z 12008KT 06/00 A2984 RMK A01 T00610003  RH  067%=      5-min Rain = 0
KHO1 220608Z 12009KT 06/00 A2984 RMK A01 T00610004  RH  067%=      5-min Rain = 0
KHO1 220609Z 13009KT 06/00 A2984 RMK A01 T00610004  RH  067%=      5-min Rain = 0
KHO1 220610Z 13008KT 06/00 A2984 RMK A01 T00600004  RH  067%=      5-min Rain = 0
KHO1 220611Z 12007KT 06/00 A2984 RMK A01 T00600004  RH  067%=      5-min Rain = 0
KHO1 220612Z 13008KT 06/00 A2983 RMK A01 T00600004  RH  068%=      5-min Rain = 0
KHO1 220613Z 13007KT 06/00 A2984 RMK A01 T00590004  RH  067%=      5-min Rain = 0
KHO1 220614Z 13011KT 06/00 A2984 RMK A01 T00590004  RH  068%=      5-min Rain = 0
KHO1 220615Z 12010KT 06/00 A2984 RMK A01 T00590004  RH  068%=      5-min Rain = 0
KHO1 220616Z 13010KT 06/00 A2984 RMK A01 T00590004  RH  068%=      5-min Rain = 0
KHO1 220617Z 13010KT 06/00 A2984 RMK A01 T00590004  RH  068%=      5-min Rain = 0
KHO1 220618Z 12011KT 06/00 A2984 RMK A01 T00580004  RH  068%=      5-min Rain = 0
KHO1 220619Z 13009KT 06/00 A2984 RMK A01 T00580004  RH  068%=      5-min Rain = 0
KHO1 220620Z 12010KT 06/00 A2984 RMK A01 T00570004  RH  068%=      5-min Rain = 0
KHO1 220621Z 12009KT 06/00 A2984 RMK A01 T00570004  RH  068%=      5-min Rain = 0
KHO1 220622Z 12010KT 06/00 A2984 RMK A01 T00570004  RH  069%=      5-min Rain = 0
KHO1 220623Z 13011KT 06/00 A2984 RMK A01 T00560003  RH  069%=      5-min Rain = 0
KHO1 220624Z 12009KT 06/00 A2984 RMK A01 T00560004  RH  069%=      5-min Rain = 0
KHO1 220625Z 13008KT 06/00 A2984 RMK A01 T00560003  RH  069%=      5-min Rain = 0
KHO1 220626Z 13010KT 06/00 A2984 RMK A01 T00560003  RH  069%=      5-min Rain = 0
KHO1 220627Z 12010KT 06/00 A2984 RMK A01 T00550003  RH  069%=      5-min Rain = 0
KHO1 220628Z 12008KT 06/00 A2984 RMK A01 T00550003  RH  069%=      5-min Rain = 0
KHO1 220629Z 13008KT 06/00 A2984 RMK A01 T00550002  RH  069%=      5-min Rain = 0
KHO1 220630Z 13009KT 05/00 A2984 RMK A01 T00540002  RH  069%=      5-min Rain = 0
KHO1 220631Z 12010KT 05/00 A2984 RMK A01 T00540003  RH  069%=      5-min Rain = 0
KHO1 220632Z 13012KT 05/00 A2984 RMK A01 T00540003  RH  069%=      5-min Rain = 0
KHO1 220633Z 12010KT 06/00 A2984 RMK A01 T00550002  RH  069%=      5-min Rain = 0
KHO1 220634Z 12010KT 05/00 A2984 RMK A01 T00540002  RH  069%=      5-min Rain = 0
KHO1 220635Z 12009KT 05/00 A2984 RMK A01 T00540002  RH  069%=      5-min Rain = 0
KHO1 220636Z 13009KT 05/00 A2984 RMK A01 T00540002  RH  069%=      5-min Rain = 0
KHO1 220637Z 12009KT 05/00 A2984 RMK A01 T00540002  RH  069%=      5-min Rain = 0
KHO1 220638Z 12011KT 05/00 A2984 RMK A01 T00540002  RH  069%=      5-min Rain = 0
KHO1 220639Z 12010KT 05/00 A2984 RMK A01 T00540002  RH  069%=      5-min Rain = 0
KHO1 220640Z 12009KT 05/00 A2984 RMK A01 T00540002  RH  069%=      5-min Rain = 0
KHO1 220641Z 12011KT 05/00 A2984 RMK A01 T00540001  RH  069%=      5-min Rain = 0
KHO1 220642Z 12008KT 05/00 A2984 RMK A01 T00530001  RH  069%=      5-min Rain = 0
KHO1 220643Z 11009KT 05/00 A2984 RMK A01 T00530000  RH  069%=      5-min Rain = 0
KHO1 220644Z 11009KT 05/00 A2984 RMK A01 T005200-0  RH  069%=      5-min Rain = 0
KHO1 220645Z 11009KT 05/00 A2984 RMK A01 T005200-0  RH  069%=      5-min Rain = 0
KHO1 220646Z 11008KT 05/M00 A2984 RMK A01 T00511001  RH  069%=      5-min Rain = 0
KHO1 220647Z 12008KT 05/M00 A2984 RMK A01 T00501001  RH  069%=      5-min Rain = 0
KHO1 220648Z 12007KT 05/M00 A2984 RMK A01 T00501001  RH  069%=      5-min Rain = 0
KHO1 220649Z 11009KT 05/M00 A2984 RMK A01 T00491001  RH  070%=      5-min Rain = 0
KHO1 220650Z 12009KT 05/M00 A2984 RMK A01 T00491001  RH  070%=      5-min Rain = 0
KHO1 220651Z 12009KT 05/M00 A2984 RMK A01 T00491001  RH  070%=      5-min Rain = 0
KHO1 220652Z 12007KT 05/M00 A2985 RMK A01 T00491002  RH  070%=      5-min Rain = 0
KHO1 220653Z 12008KT 05/M00 A2984 RMK A01 T00481002  RH  070%=      5-min Rain = 0
KHO1 220654Z 11008KT 05/M00 A2984 RMK A01 T00481002  RH  070%=      5-min Rain = 0
KHO1 220655Z 12009KT 05/M00 A2984 RMK A01 T00481002  RH  070%=      5-min Rain = 0
KHO1 220656Z 11008KT 05/M00 A2984 RMK A01 T00481002  RH  070%=      5-min Rain = 0
KHO1 220657Z 11007KT 05/M00 A2984 RMK A01 T00471003  RH  070%=      5-min Rain = 0
KHO1 220658Z 11009KT 05/M00 A2984 RMK A01 T00461003  RH  070%=      5-min Rain = 0
KHO1 220659Z 12008KT 05/M00 A2985 RMK A01 T00461003  RH  070%=      5-min Rain = 0
KHO1 220700Z 12008KT 05/M00 A2985 RMK A01 T00461003  RH  070%=      5-min Rain = 0
KHO1 220701Z 12008KT 05/M00 A2985 RMK A01 T00461004  RH  070%=      5-min Rain = 0
KHO1 220702Z 12010KT 05/M00 A2985 RMK A01 T00461004  RH  070%=      5-min Rain = 0
KHO1 220703Z 11010KT 05/M00 A2985 RMK A01 T00451004  RH  070%=      5-min Rain = 0
KHO1 220704Z 11009KT 05/M00 A2985 RMK A01 T00451004  RH  070%=      5-min Rain = 0
KHO1 220705Z 11009KT 04/M01 A2985 RMK A01 T00441005  RH  070%=      5-min Rain = 0
KHO1 220706Z 11009KT 04/M01 A2985 RMK A01 T00441005  RH  070%=      5-min Rain = 0
KHO1 220707Z 11009KT 04/M01 A2985 RMK A01 T00431005  RH  071%=      5-min Rain = 0
KHO1 220708Z 12009KT 04/M01 A2985 RMK A01 T00431005  RH  071%=      5-min Rain = 0
KHO1 220709Z 11008KT 04/M01 A2985 RMK A01 T00431005  RH  071%=      5-min Rain = 0
KHO1 220710Z 12008KT 04/M01 A2985 RMK A01 T00431006  RH  071%=      5-min Rain = 0
KHO1 220711Z 12011KT 04/M01 A2985 RMK A01 T00421006  RH  071%=      5-min Rain = 0
KHO1 220712Z 12010KT 04/M01 A2985 RMK A01 T00421005  RH  071%=      5-min Rain = 0
KHO1 220713Z 12011KT 04/M01 A2985 RMK A01 T00421006  RH  071%=      5-min Rain = 0
KHO1 220714Z 12009KT 04/M01 A2985 RMK A01 T00421006  RH  071%=      5-min Rain = 0
KHO1 220715Z 11009KT 04/M01 A2985 RMK A01 T00421006  RH  071%=      5-min Rain = 0
KHO1 220716Z 11008KT 04/M01 A2985 RMK A01 T00411007  RH  071%=      5-min Rain = 0
KHO1 220717Z 12010KT 04/M01 A2985 RMK A01 T00411007  RH  071%=      5-min Rain = 0
KHO1 220718Z 12009KT 04/M01 A2985 RMK A01 T00401007  RH  071%=      5-min Rain = 0
KHO1 220719Z 11009KT 04/M01 A2985 RMK A01 T00401007  RH  071%=      5-min Rain = 0
KHO1 220720Z 11009KT 04/M01 A2985 RMK A01 T00401007  RH  071%=      5-min Rain = 0
KHO1 220721Z 11009KT 04/M01 A2985 RMK A01 T00401007  RH  071%=      5-min Rain = 0
KHO1 220722Z 11009KT 04/M01 A2985 RMK A01 T00401007  RH  071%=      5-min Rain = 0
KHO1 220723Z 11010KT 04/M01 A2985 RMK A01 T00401007  RH  071%=      5-min Rain = 0
KHO1 220724Z 11008KT 04/M01 A2985 RMK A01 T00401007  RH  071%=      5-min Rain = 0
KHO1 220725Z 11009KT 04/M01 A2985 RMK A01 T00391008  RH  071%=      5-min Rain = 0
KHO1 220726Z 12008KT 04/M01 A2985 RMK A01 T00391008  RH  071%=      5-min Rain = 0
KHO1 220727Z 11008KT 04/M01 A2985 RMK A01 T00391009  RH  071%=      5-min Rain = 0
KHO1 220728Z 11007KT 04/M01 A2985 RMK A01 T00381009  RH  071%=      5-min Rain = 0
KHO1 220729Z 11008KT 04/M01 A2985 RMK A01 T00381010  RH  071%=      5-min Rain = 0
KHO1 220730Z 12009KT 04/M01 A2985 RMK A01 T00371009  RH  071%=      5-min Rain = 0
KHO1 220731Z 11010KT 04/M01 A2985 RMK A01 T00371010  RH  072%=      5-min Rain = 0
KHO1 220732Z 11009KT 04/M01 A2985 RMK A01 T00371009  RH  072%=      5-min Rain = 0
KHO1 220733Z 11009KT 04/M01 A2985 RMK A01 T00371010  RH  072%=      5-min Rain = 0
KHO1 220734Z 11010KT 04/M01 A2985 RMK A01 T00371009  RH  072%=      5-min Rain = 0
KHO1 220735Z 11009KT 04/M01 A2985 RMK A01 T00371010  RH  072%=      5-min Rain = 0
KHO1 220736Z 11009KT 04/M01 A2985 RMK A01 T00361011  RH  071%=      5-min Rain = 0
KHO1 220737Z 11009KT 04/M01 A2985 RMK A01 T00361011  RH  072%=      5-min Rain = 0
KHO1 220738Z 11010KT 04/M01 A2985 RMK A01 T00351011  RH  072%=      5-min Rain = 0
KHO1 220739Z 11009KT 04/M01 A2985 RMK A01 T00351011  RH  072%=      5-min Rain = 0
KHO1 220740Z 11012KT 04/M01 A2985 RMK A01 T00351011  RH  072%=      5-min Rain = 0
KHO1 220741Z 12010KT 04/M01 A2985 RMK A01 T00351011  RH  072%=      5-min Rain = 0
KHO1 220742Z 11010KT 04/M01 A2985 RMK A01 T00351011  RH  072%=      5-min Rain = 0
KHO1 220743Z 12009KT 04/M01 A2985 RMK A01 T00351012  RH  071%=      5-min Rain = 0
KHO1 220744Z 12012KT 03/M01 A2985 RMK A01 T00341012  RH  072%=      5-min Rain = 0
KHO1 220745Z 11009KT 04/M01 A2985 RMK A01 T00351012  RH  071%=      5-min Rain = 0
KHO1 220746Z 11011KT 03/M01 A2985 RMK A01 T00341013  RH  071%=      5-min Rain = 0
KHO1 220747Z 11010KT 03/M01 A2984 RMK A01 T00341013  RH  071%=      5-min Rain = 0
KHO1 220748Z 11010KT 03/M01 A2984 RMK A01 T00331013  RH  071%=      5-min Rain = 0
KHO1 220749Z 11010KT 03/M01 A2985 RMK A01 T00331013  RH  072%=      5-min Rain = 0
KHO1 220750Z 11011KT 03/M01 A2985 RMK A01 T00331013  RH  072%=      5-min Rain = 0
KHO1 220751Z 11009KT 03/M01 A2985 RMK A01 T00331013  RH  072%=      5-min Rain = 0
KHO1 220752Z 12010KT 03/M01 A2985 RMK A01 T00331013  RH  072%=      5-min Rain = 0
KHO1 220753Z 11009KT 03/M01 A2985 RMK A01 T00331013  RH  072%=      5-min Rain = 0
KHO1 220754Z 11009KT 03/M01 A2985 RMK A01 T00331013  RH  072%=      5-min Rain = 0
KHO1 220755Z 11008KT 03/M01 A2985 RMK A01 T00321014  RH  072%=      5-min Rain = 0
KHO1 220756Z 11008KT 03/M02 A2985 RMK A01 T00311015  RH  072%=      5-min Rain = 0
KHO1 220757Z 11008KT 03/M02 A2985 RMK A01 T00311015  RH  072%=      5-min Rain = 0
KHO1 220758Z 11009KT 03/M02 A2985 RMK A01 T00301015  RH  072%=      5-min Rain = 0
KHO1 220759Z 11008KT 03/M02 A2985 RMK A01 T00301015  RH  073%=      5-min Rain = 0
KHO1 220800Z 11010KT 03/M02 A2985 RMK A01 T00291015  RH  073%=      5-min Rain = 0
KHO1 220801Z 11010KT 03/M02 A2985 RMK A01 T00291015  RH  073%=      5-min Rain = 0
KHO1 220802Z 11008KT 03/M02 A2985 RMK A01 T00291015  RH  073%=      5-min Rain = 0
KHO1 220803Z 11009KT 03/M02 A2985 RMK A01 T00281015  RH  073%=      5-min Rain = 0
KHO1 220804Z 11008KT 03/M02 A2985 RMK A01 T00281015  RH  073%=      5-min Rain = 0
KHO1 220805Z 11008KT 03/M02 A2985 RMK A01 T00281015  RH  073%=      5-min Rain = 0
KHO1 220806Z 11007KT 03/M02 A2985 RMK A01 T00281015  RH  073%=      5-min Rain = 0
KHO1 220807Z 11007KT 03/M02 A2985 RMK A01 T00271016  RH  073%=      5-min Rain = 0
KHO1 220808Z 11006KT 03/M02 A2985 RMK A01 T00271016  RH  073%=      5-min Rain = 0
KHO1 220809Z 11007KT 03/M02 A2986 RMK A01 T00271016  RH  074%=      5-min Rain = 0
KHO1 220810Z 11006KT 03/M02 A2986 RMK A01 T00261016  RH  074%=      5-min Rain = 0
KHO1 220811Z 11005KT 03/M02 A2986 RMK A01 T00261017  RH  074%=      5-min Rain = 0
KHO1 220812Z 11005KT 03/M02 A2986 RMK A01 T00261017  RH  074%=      5-min Rain = 0
KHO1 220813Z 12006KT 03/M02 A2986 RMK A01 T00251017  RH  074%=      5-min Rain = 0
KHO1 220814Z 10005KT 03/M02 A2986 RMK A01 T00251017  RH  074%=      5-min Rain = 0
KHO1 220815Z 11006KT 03/M02 A2986 RMK A01 T00251017  RH  074%=      5-min Rain = 0
KHO1 220816Z 10005KT 03/M02 A2986 RMK A01 T00251017  RH  074%=      5-min Rain = 0
KHO1 220817Z 10006KT 03/M02 A2986 RMK A01 T00251017  RH  074%=      5-min Rain = 0
KHO1 220818Z 10006KT 03/M02 A2986 RMK A01 T00251016  RH  074%=      5-min Rain = 0
KHO1 220819Z 10006KT 03/M02 A2986 RMK A01 T00251016  RH  074%=      5-min Rain = 0
KHO1 220820Z 11007KT 03/M02 A2986 RMK A01 T00251016  RH  074%=      5-min Rain = 0
KHO1 220821Z 10006KT 03/M02 A2986 RMK A01 T00251016  RH  074%=      5-min Rain = 0
KHO1 220822Z 10007KT 03/M02 A2986 RMK A01 T00251016  RH  074%=      5-min Rain = 0
KHO1 220823Z 10005KT 03/M02 A2987 RMK A01 T00251016  RH  074%=      5-min Rain = 0
KHO1 220824Z 10006KT 03/M02 A2987 RMK A01 T00251017  RH  074%=      5-min Rain = 0
KHO1 220825Z 10005KT 03/M02 A2987 RMK A01 T00251016  RH  075%=      5-min Rain = 0
KHO1 220826Z 09003KT 03/M02 A2987 RMK A01 T00251016  RH  074%=      5-min Rain = 0
KHO1 220827Z 09003KT 02/M02 A2987 RMK A01 T00241017  RH  074%=      5-min Rain = 0
KHO1 220828Z 10004KT 02/M02 A2987 RMK A01 T00241017  RH  074%=      5-min Rain = 0
KHO1 220829Z 10004KT 02/M02 A2987 RMK A01 T00241017  RH  074%=      5-min Rain = 0
KHO1 220830Z 09004KT 02/M02 A2987 RMK A01 T00241017  RH  075%=      5-min Rain = 0
KHO1 220831Z 09005KT 02/M02 A2987 RMK A01 T00231017  RH  075%=      5-min Rain = 0
KHO1 220832Z 10005KT 02/M02 A2987 RMK A01 T00231017  RH  075%=      5-min Rain = 0
KHO1 220833Z 10005KT 02/M02 A2987 RMK A01 T00231017  RH  075%=      5-min Rain = 0
KHO1 220834Z 10006KT 02/M02 A2987 RMK A01 T00221017  RH  075%=      5-min Rain = 0
KHO1 220835Z 10006KT 02/M02 A2987 RMK A01 T00221017  RH  076%=      5-min Rain = 0
KHO1 220836Z 10007KT 02/M02 A2987 RMK A01 T00221016  RH  076%=      5-min Rain = 0
KHO1 220837Z 11007KT 02/M02 A2987 RMK A01 T00221015  RH  076%=      5-min Rain = 0
KHO1 220838Z 10006KT 02/M02 A2987 RMK A01 T00221015  RH  076%=      5-min Rain = 0
KHO1 220839Z 11006KT 02/M02 A2987 RMK A01 T00221016  RH  076%=      5-min Rain = 0
KHO1 220840Z 12006KT 02/M02 A2987 RMK A01 T00221016  RH  076%=      5-min Rain = 0
KHO1 220841Z 11007KT 02/M02 A2987 RMK A01 T00221015  RH  076%=      5-min Rain = 0
KHO1 220842Z 12006KT 02/M02 A2987 RMK A01 T00221015  RH  077%=      5-min Rain = 0
KHO1 220843Z 11007KT 02/M02 A2987 RMK A01 T00221015  RH  077%=      5-min Rain = 0
KHO1 220844Z 11007KT 02/M01 A2987 RMK A01 T00231014  RH  077%=      5-min Rain = 0
KHO1 220845Z 12006KT 02/M01 A2987 RMK A01 T00231014  RH  077%=      5-min Rain = 0
KHO1 220846Z 11006KT 02/M01 A2987 RMK A01 T00231014  RH  076%=      5-min Rain = 0
KHO1 220847Z 12007KT 02/M01 A2987 RMK A01 T00231014  RH  076%=      5-min Rain = 0
KHO1 220848Z 11007KT 02/M01 A2987 RMK A01 T00231014  RH  076%=      5-min Rain = 0
KHO1 220849Z 12006KT 02/M01 A2987 RMK A01 T00231014  RH  076%=      5-min Rain = 0
KHO1 220850Z 12006KT 02/M02 A2987 RMK A01 T00231015  RH  076%=      5-min Rain = 0
KHO1 220851Z 12006KT 02/M02 A2987 RMK A01 T00221015  RH  076%=      5-min Rain = 0
KHO1 220852Z 11006KT 02/M02 A2987 RMK A01 T00221015  RH  077%=      5-min Rain = 0
KHO1 220853Z 11006KT 02/M02 A2987 RMK A01 T00221015  RH  077%=      5-min Rain = 0
KHO1 220854Z 11005KT 02/M02 A2987 RMK A01 T00211015  RH  077%=      5-min Rain = 0
KHO1 220855Z 11005KT 02/M02 A2987 RMK A01 T00211016  RH  077%=      5-min Rain = 0
KHO1 220856Z 11005KT 02/M02 A2987 RMK A01 T00201016  RH  077%=      5-min Rain = 0
KHO1 220857Z 11005KT 02/M02 A2987 RMK A01 T00201016  RH  077%=      5-min Rain = 0
KHO1 220858Z 11005KT 02/M02 A2987 RMK A01 T00191016  RH  077%=      5-min Rain = 0
KHO1 220859Z 11005KT 02/M02 A2987 RMK A01 T00191016  RH  077%=      5-min Rain = 0
KHO1 220900Z 11006KT 02/M02 A2987 RMK A01 T00191016  RH  078%=      5-min Rain = 0
KHO1 220901Z 10005KT 02/M02 A2987 RMK A01 T00181016  RH  078%=      5-min Rain = 0
KHO1 220902Z 10004KT 02/M02 A2987 RMK A01 T00181016  RH  078%=      5-min Rain = 0
KHO1 220903Z 10004KT 02/M02 A2987 RMK A01 T00181016  RH  078%=      5-min Rain = 0
KHO1 220904Z 10003KT 02/M02 A2987 RMK A01 T00181016  RH  078%=      5-min Rain = 0
KHO1 220905Z 10004KT 02/M02 A2987 RMK A01 T00171017  RH  078%=      5-min Rain = 0
KHO1 220906Z 10003KT 02/M02 A2987 RMK A01 T00171017  RH  078%=      5-min Rain = 0
KHO1 220907Z 09003KT 02/M02 A2987 RMK A01 T00171017  RH  078%=      5-min Rain = 0
KHO1 220908Z 09003KT 02/M02 A2987 RMK A01 T00161017  RH  079%=      5-min Rain = 0
KHO1 220909Z 08003KT 02/M02 A2987 RMK A01 T00161017  RH  079%=      5-min Rain = 0
KHO1 220910Z 08002KT 02/M02 A2987 RMK A01 T00161017  RH  079%=      5-min Rain = 0
KHO1 220911Z 07002KT 02/M02 A2987 RMK A01 T00161017  RH  079%=      5-min Rain = 0
KHO1 220912Z 07002KT 02/M02 A2987 RMK A01 T00161016  RH  079%=      5-min Rain = 0
KHO1 220913Z 07003KT 02/M02 A2987 RMK A01 T00161017  RH  079%=      5-min Rain = 0
KHO1 220914Z 07003KT 02/M02 A2987 RMK A01 T00151017  RH  079%=      5-min Rain = 0
KHO1 220915Z 07003KT 02/M02 A2987 RMK A01 T00151017  RH  079%=      5-min Rain = 0
KHO1 220916Z 06003KT 02/M02 A2987 RMK A01 T00151017  RH  079%=      5-min Rain = 0
KHO1 220917Z 07003KT 02/M02 A2987 RMK A01 T00151017  RH  079%=      5-min Rain = 0
KHO1 220918Z 07003KT 02/M02 A2987 RMK A01 T00151018  RH  079%=      5-min Rain = 0
KHO1 220919Z 07003KT 01/M02 A2987 RMK A01 T00141018  RH  079%=      5-min Rain = 0
KHO1 220920Z 06003KT 01/M02 A2987 RMK A01 T00141019  RH  079%=      5-min Rain = 0
KHO1 220921Z 04004KT 01/M02 A2987 RMK A01 T00131019  RH  079%=      5-min Rain = 0
KHO1 220922Z 05003KT 01/M02 A2987 RMK A01 T00121020  RH  079%=      5-min Rain = 0
KHO1 220923Z 04002KT 01/M02 A2987 RMK A01 T00121020  RH  079%=      5-min Rain = 0
KHO1 220924Z 05003KT 01/M02 A2987 RMK A01 T00121020  RH  080%=      5-min Rain = 0
KHO1 220925Z 05003KT 01/M02 A2986 RMK A01 T00111020  RH  080%=      5-min Rain = 0
KHO1 220926Z 05004KT 01/M02 A2986 RMK A01 T00111021  RH  079%=      5-min Rain = 0
KHO1 220927Z 05003KT 01/M02 A2986 RMK A01 T00101021  RH  080%=      5-min Rain = 0
KHO1 220928Z 06003KT 01/M02 A2986 RMK A01 T00101021  RH  080%=      5-min Rain = 0
KHO1 220929Z 05003KT 01/M02 A2986 RMK A01 T00101021  RH  080%=      5-min Rain = 0
KHO1 220930Z 05004KT 01/M02 A2986 RMK A01 T00101022  RH  079%=      5-min Rain = 0
KHO1 220931Z 05004KT 01/M02 A2986 RMK A01 T00091023  RH  079%=      5-min Rain = 0
KHO1 220932Z 06002KT 01/M02 A2986 RMK A01 T00081024  RH  080%=      5-min Rain = 0
KHO1 220933Z 06002KT 01/M02 A2986 RMK A01 T00071024  RH  080%=      5-min Rain = 0
KHO1 220934Z 06002KT 01/M02 A2986 RMK A01 T00061024  RH  080%=      5-min Rain = 0
KHO1 220935Z 06002KT 01/M02 A2986 RMK A01 T00061024  RH  080%=      5-min Rain = 0
KHO1 220936Z 06002KT 01/M03 A2986 RMK A01 T00051025  RH  080%=      5-min Rain = 0
KHO1 220937Z 06002KT 01/M03 A2986 RMK A01 T00051025  RH  081%=      5-min Rain = 0
KHO1 220938Z 06002KT 01/M03 A2986 RMK A01 T00051025  RH  081%=      5-min Rain = 0
KHO1 220939Z 07002KT 00/M02 A2986 RMK A01 T00041024  RH  081%=      5-min Rain = 0
KHO1 220940Z 07002KT 00/M02 A2986 RMK A01 T00041024  RH  081%=      5-min Rain = 0
KHO1 220941Z 07002KT 01/M02 A2986 RMK A01 T00051023  RH  082%=      5-min Rain = 0
KHO1 220942Z 06003KT 01/M02 A2986 RMK A01 T00051022  RH  082%=      5-min Rain = 0
KHO1 220943Z 06004KT 01/M02 A2986 RMK A01 T00051022  RH  082%=      5-min Rain = 0
KHO1 220944Z 06003KT 01/M02 A2986 RMK A01 T00061022  RH  082%=      5-min Rain = 0
KHO1 220945Z 06003KT 01/M02 A2986 RMK A01 T00061022  RH  082%=      5-min Rain = 0
KHO1 220946Z 06003KT 01/M02 A2986 RMK A01 T00061023  RH  081%=      5-min Rain = 0
KHO1 220947Z 07003KT 01/M02 A2986 RMK A01 T00051023  RH  081%=      5-min Rain = 0
KHO1 220948Z 07003KT 01/M02 A2986 RMK A01 T00051024  RH  081%=      5-min Rain = 0
KHO1 220949Z 08003KT 00/M03 A2986 RMK A01 T00041025  RH  081%=      5-min Rain = 0
KHO1 220950Z 08003KT 00/M03 A2986 RMK A01 T00041026  RH  081%=      5-min Rain = 0
KHO1 220951Z 07003KT 00/M03 A2986 RMK A01 T00031026  RH  081%=      5-min Rain = 0
KHO1 220952Z 08003KT 00/M03 A2986 RMK A01 T00031026  RH  081%=      5-min Rain = 0
KHO1 220953Z 07003KT 00/M03 A2986 RMK A01 T00021026  RH  082%=      5-min Rain = 0
KHO1 220954Z 07003KT 00/M03 A2986 RMK A01 T00021025  RH  082%=      5-min Rain = 0
KHO1 220955Z 07003KT 00/M02 A2986 RMK A01 T00021024  RH  082%=      5-min Rain = 0
KHO1 220956Z 06003KT 00/M02 A2986 RMK A01 T00031024  RH  082%=      5-min Rain = 0
KHO1 220957Z 07003KT 00/M02 A2986 RMK A01 T00031023  RH  083%=      5-min Rain = 0
KHO1 220958Z 07003KT 00/M02 A2986 RMK A01 T00031023  RH  083%=      5-min Rain = 0
KHO1 220959Z 07003KT 00/M02 A2986 RMK A01 T00031023  RH  083%=      5-min Rain = 0
KHO1 221000Z 07003KT 00/M02 A2986 RMK A01 T00031024  RH  082%=      5-min Rain = 0
KHO1 221001Z 07003KT 00/M02 A2986 RMK A01 T00031024  RH  082%=      5-min Rain = 0
KHO1 221002Z 07003KT 00/M02 A2986 RMK A01 T00021024  RH  082%=      5-min Rain = 0
KHO1 221003Z 07003KT 00/M03 A2986 RMK A01 T00021025  RH  082%=      5-min Rain = 0
KHO1 221004Z 07003KT 00/M03 A2986 RMK A01 T00011025  RH  082%=      5-min Rain = 0
KHO1 221005Z 07003KT 00/M03 A2986 RMK A01 T00011026  RH  082%=      5-min Rain = 0
KHO1 221006Z 07003KT 00/03 A2986 RMK A01 T00000-26  RH  083%=      5-min Rain = 0
KHO1 221007Z 07003KT 00/03 A2986 RMK A01 T00-00-26  RH  083%=      5-min Rain = 0
KHO1 221008Z 07003KT 00/03 A2986 RMK A01 T00-00-25  RH  083%=      5-min Rain = 0
KHO1 221009Z 06003KT 00/02 A2986 RMK A01 T00000-24  RH  084%=      5-min Rain = 0
KHO1 221010Z 06003KT 00/02 A2986 RMK A01 T00000-23  RH  084%=      5-min Rain = 0
KHO1 221011Z 06003KT 00/02 A2986 RMK A01 T00000-24  RH  084%=      5-min Rain = 0
KHO1 221012Z 06003KT M00/M03 A2986 RMK A01 T10011025  RH  084%=      5-min Rain = 0
KHO1 221013Z 06003KT M00/M02 A2986 RMK A01 T10011024  RH  084%=      5-min Rain = 0
KHO1 221014Z 06003KT M00/M02 A2986 RMK A01 T10011024  RH  084%=      5-min Rain = 0
KHO1 221015Z 06004KT 00/02 A2986 RMK A01 T00-00-23  RH  085%=      5-min Rain = 0
KHO1 221016Z 06003KT 00/02 A2986 RMK A01 T00000-22  RH  085%=      5-min Rain = 0
KHO1 221017Z 06003KT 00/02 A2986 RMK A01 T00000-21  RH  085%=      5-min Rain = 0
KHO1 221018Z 06003KT 00/M02 A2986 RMK A01 T00011022  RH  085%=      5-min Rain = 0
KHO1 221019Z 07003KT 00/02 A2986 RMK A01 T00000-22  RH  085%=      5-min Rain = 0
KHO1 221020Z 07003KT 00/02 A2986 RMK A01 T00000-22  RH  085%=      5-min Rain = 0
KHO1 221021Z 07003KT 00/02 A2986 RMK A01 T00-00-23  RH  085%=      5-min Rain = 0
KHO1 221022Z 07003KT M00/M02 A2986 RMK A01 T10011023  RH  085%=      5-min Rain = 0
KHO1 221023Z 07003KT M00/M02 A2986 RMK A01 T10011023  RH  085%=      5-min Rain = 0
KHO1 221024Z 06003KT M00/M02 A2986 RMK A01 T10011024  RH  085%=      5-min Rain = 0
KHO1 221025Z 07003KT M00/M02 A2986 RMK A01 T10011023  RH  085%=      5-min Rain = 0
KHO1 221026Z 07002KT M00/M02 A2986 RMK A01 T10021024  RH  085%=      5-min Rain = 0
KHO1 221027Z 07003KT M00/M02 A2986 RMK A01 T10021024  RH  085%=      5-min Rain = 0
KHO1 221028Z 07003KT M00/M02 A2986 RMK A01 T10021024  RH  085%=      5-min Rain = 0
KHO1 221029Z 07003KT M00/M02 A2986 RMK A01 T10031024  RH  085%=      5-min Rain = 0
KHO1 221030Z 07003KT M00/M02 A2986 RMK A01 T10031024  RH  085%=      5-min Rain = 0
KHO1 221031Z 07003KT M00/M02 A2986 RMK A01 T10031024  RH  086%=      5-min Rain = 0
KHO1 221032Z 07003KT M00/M02 A2986 RMK A01 T10021023  RH  086%=      5-min Rain = 0
KHO1 221033Z 07003KT M00/M02 A2986 RMK A01 T10021022  RH  086%=      5-min Rain = 0
KHO1 221034Z 08003KT M00/M02 A2986 RMK A01 T10021022  RH  086%=      5-min Rain = 0
KHO1 221035Z 08003KT M00/M02 A2986 RMK A01 T10021022  RH  086%=      5-min Rain = 0
KHO1 221036Z 08003KT M00/M02 A2986 RMK A01 T10021022  RH  086%=      5-min Rain = 0
KHO1 221037Z 08003KT M00/M02 A2986 RMK A01 T10021023  RH  086%=      5-min Rain = 0
KHO1 221038Z 09003KT M00/M02 A2986 RMK A01 T10031023  RH  086%=      5-min Rain = 0
KHO1 221039Z 09003KT M00/M02 A2986 RMK A01 T10031023  RH  086%=      5-min Rain = 0
KHO1 221040Z 09003KT M00/M02 A2986 RMK A01 T10031023  RH  086%=      5-min Rain = 0
KHO1 221041Z 09003KT M00/M02 A2986 RMK A01 T10031023  RH  086%=      5-min Rain = 0
KHO1 221042Z 09003KT M00/M02 A2986 RMK A01 T10031023  RH  086%=      5-min Rain = 0
KHO1 221043Z 10003KT M00/M02 A2986 RMK A01 T10031023  RH  087%=      5-min Rain = 0
KHO1 221044Z 09003KT M00/M02 A2986 RMK A01 T10031023  RH  087%=      5-min Rain = 0
KHO1 221045Z 09003KT M00/M02 A2986 RMK A01 T10031022  RH  087%=      5-min Rain = 0
KHO1 221046Z 09003KT M00/M02 A2986 RMK A01 T10031022  RH  087%=      5-min Rain = 0
KHO1 221047Z 09003KT M00/M02 A2986 RMK A01 T10031021  RH  087%=      5-min Rain = 0
KHO1 221048Z 10004KT M00/M02 A2986 RMK A01 T10021020  RH  088%=      5-min Rain = 0
KHO1 221049Z 09003KT M00/M02 A2986 RMK A01 T10021019  RH  088%=      5-min Rain = 0
KHO1 221050Z 09003KT M00/M02 A2986 RMK A01 T10021019  RH  088%=      5-min Rain = 0
KHO1 221051Z 09003KT M00/M02 A2986 RMK A01 T10021019  RH  088%=      5-min Rain = 0
KHO1 221052Z 09003KT M00/M02 A2986 RMK A01 T10021019  RH  088%=      5-min Rain = 0
KHO1 221053Z 09003KT M00/M02 A2986 RMK A01 T10021019  RH  088%=      5-min Rain = 0
KHO1 221054Z 09003KT M00/M02 A2986 RMK A01 T10021019  RH  088%=      5-min Rain = 0
KHO1 221055Z 09002KT M00/M02 A2986 RMK A01 T10021019  RH  088%=      5-min Rain = 0
KHO1 221056Z 08002KT M00/M02 A2986 RMK A01 T10031019  RH  088%=      5-min Rain = 0
KHO1 221057Z 08002KT M00/M02 A2986 RMK A01 T10031019  RH  089%=      5-min Rain = 0
KHO1 221058Z 08002KT M00/M02 A2986 RMK A01 T10031019  RH  089%=      5-min Rain = 0
KHO1 221059Z 08002KT M00/M02 A2986 RMK A01 T10031019  RH  089%=      5-min Rain = 0
KHO1 221100Z 07003KT M00/M02 A2986 RMK A01 T10031019  RH  089%=      5-min Rain = 0
KHO1 221101Z 07003KT M00/M02 A2987 RMK A01 T10031018  RH  090%=      5-min Rain = 0
KHO1 221102Z 07003KT M00/M02 A2987 RMK A01 T10021016  RH  090%=      5-min Rain = 0
KHO1 221103Z 06003KT M00/M01 A2987 RMK A01 T10021013  RH  092%=      5-min Rain = 0
KHO1 221104Z 07003KT M00/M01 A2987 RMK A01 T10021011  RH  093%=      5-min Rain = 0
KHO1 221105Z 06003KT M00/M01 A2987 RMK A01 T10021011  RH  093%=      5-min Rain = 0
KHO1 221106Z 06003KT M00/M01 A2987 RMK A01 T10021012  RH  093%=      5-min Rain = 0
KHO1 221107Z 07002KT M00/M02 A2987 RMK A01 T10031015  RH  092%=      5-min Rain = 0
KHO1 221108Z 07003KT M01/M02 A2987 RMK A01 T10051018  RH  091%=      5-min Rain = 0
KHO1 221109Z 07002KT M01/M02 A2987 RMK A01 T10051019  RH  091%=      5-min Rain = 0
KHO1 221110Z 07002KT M01/M02 A2987 RMK A01 T10061019  RH  091%=      5-min Rain = 0
KHO1 221111Z 07002KT M01/M02 A2987 RMK A01 T10061020  RH  091%=      5-min Rain = 0
KHO1 221112Z 06002KT M01/M02 A2987 RMK A01 T10071021  RH  091%=      5-min Rain = 0
KHO1 221113Z 05002KT M01/M02 A2987 RMK A01 T10071020  RH  091%=      5-min Rain = 0
KHO1 221114Z 05002KT M01/M02 A2987 RMK A01 T10081020  RH  091%=      5-min Rain = 0
KHO1 221115Z 06002KT M01/M02 A2987 RMK A01 T10081020  RH  091%=      5-min Rain = 0
KHO1 221116Z 06002KT M01/M02 A2987 RMK A01 T10081020  RH  092%=      5-min Rain = 0
KHO1 221117Z 07002KT M01/M02 A2987 RMK A01 T10081019  RH  093%=      5-min Rain = 0
KHO1 221118Z 07003KT M01/M02 A2987 RMK A01 T10081018  RH  093%=      5-min Rain = 0
KHO1 221119Z 07003KT M01/M02 A2987 RMK A01 T10081017  RH  094%=      5-min Rain = 0
KHO1 221120Z 07003KT M01/M02 A2987 RMK A01 T10081016  RH  094%=      5-min Rain = 0
KHO1 221121Z 07003KT M01/M02 A2987 RMK A01 T10071015  RH  095%=      5-min Rain = 0
KHO1 221122Z 07003KT M01/M01 A2987 RMK A01 T10061014  RH  095%=      5-min Rain = 0
KHO1 221123Z 07003KT M01/M01 A2987 RMK A01 T10061013  RH  095%=      5-min Rain = 0
KHO1 221124Z 07003KT M01/M01 A2987 RMK A01 T10061013  RH  095%=      5-min Rain = 0
KHO1 221125Z 07003KT M01/M01 A2987 RMK A01 T10061013  RH  095%=      5-min Rain = 0
KHO1 221126Z 07003KT M01/M01 A2987 RMK A01 T10061013  RH  095%=      5-min Rain = 0
KHO1 221127Z 07002KT M01/M01 A2987 RMK A01 T10061013  RH  095%=      5-min Rain = 0
KHO1 221128Z 07002KT M01/M01 A2987 RMK A01 T10061013  RH  095%=      5-min Rain = 0
KHO1 221129Z 08002KT M01/M01 A2987 RMK A01 T10061013  RH  095%=      5-min Rain = 0
KHO1 221130Z 08002KT M01/M01 A2987 RMK A01 T10061013  RH  095%=      5-min Rain = 0
KHO1 221131Z 08002KT M01/M01 A2987 RMK A01 T10071014  RH  095%=      5-min Rain = 0
KHO1 221132Z 08002KT M01/M01 A2987 RMK A01 T10071014  RH  095%=      5-min Rain = 0
KHO1 221133Z 07002KT M01/M02 A2987 RMK A01 T10081015  RH  095%=      5-min Rain = 0
KHO1 221134Z 07002KT M01/M02 A2987 RMK A01 T10081015  RH  095%=      5-min Rain = 0
KHO1 221135Z 07002KT M01/M01 A2987 RMK A01 T10081014  RH  095%=      5-min Rain = 0
KHO1 221136Z 06002KT M01/M01 A2987 RMK A01 T10071013  RH  096%=      5-min Rain = 0
KHO1 221137Z 07003KT M01/M01 A2987 RMK A01 T10071013  RH  096%=      5-min Rain = 0
KHO1 221138Z 06003KT M01/M01 A2987 RMK A01 T10071013  RH  096%=      5-min Rain = 0
KHO1 221139Z 05003KT M01/M01 A2987 RMK A01 T10071014  RH  096%=      5-min Rain = 0
KHO1 221140Z 05003KT M01/M01 A2987 RMK A01 T10081014  RH  096%=      5-min Rain = 0
KHO1 221141Z 05003KT M01/M01 A2987 RMK A01 T10081014  RH  096%=      5-min Rain = 0
KHO1 221142Z 05003KT M01/M01 A2987 RMK A01 T10081014  RH  096%=      5-min Rain = 0
KHO1 221143Z 05003KT M01/M01 A2987 RMK A01 T10081014  RH  096%=      5-min Rain = 0
KHO1 221144Z 06003KT M01/M01 A2987 RMK A01 T10081014  RH  096%=      5-min Rain = 0
KHO1 221145Z 06002KT M01/M01 A2987 RMK A01 T10081013  RH  096%=      5-min Rain = 0
KHO1 221146Z 05002KT M01/M01 A2987 RMK A01 T10081013  RH  096%=      5-min Rain = 0
KHO1 221147Z 05002KT M01/M01 A2987 RMK A01 T10081013  RH  096%=      5-min Rain = 0
KHO1 221148Z 06002KT M01/M01 A2987 RMK A01 T10071012  RH  096%=      5-min Rain = 0
KHO1 221149Z 06003KT M01/M01 A2987 RMK A01 T10081013  RH  096%=      5-min Rain = 0
KHO1 221150Z 06003KT M01/M01 A2987 RMK A01 T10071012  RH  096%=      5-min Rain = 0
KHO1 221151Z 06003KT M01/M01 A2987 RMK A01 T10071012  RH  096%=      5-min Rain = 0
KHO1 221152Z 06003KT M01/M01 A2987 RMK A01 T10071012  RH  097%=      5-min Rain = 0
KHO1 221153Z 05002KT M01/M01 A2988 RMK A01 T10071012  RH  097%=      5-min Rain = 0
KHO1 221154Z 05003KT M01/M01 A2988 RMK A01 T10081013  RH  096%=      5-min Rain = 0
KHO1 221155Z 05004KT M01/M02 A2988 RMK A01 T10091015  RH  096%=      5-min Rain = 0
KHO1 221156Z 05004KT M01/M02 A2988 RMK A01 T10101016  RH  096%=      5-min Rain = 0
KHO1 221157Z 05005KT M01/M02 A2988 RMK A01 T10111017  RH  096%=      5-min Rain = 0
KHO1 221158Z 05005KT M01/M02 A2988 RMK A01 T10111017  RH  096%=      5-min Rain = 0
KHO1 221159Z 04004KT M01/M02 A2988 RMK A01 T10121017  RH  096%=      5-min Rain = 0
KHO1 221200Z 04004KT M01/M02 A2988 RMK A01 T10121017  RH  097%=      5-min Rain = 0
KHO1 221201Z 03004KT M01/M02 A2988 RMK A01 T10131018  RH  097%=      5-min Rain = 0
KHO1 221202Z 03004KT M01/M02 A2988 RMK A01 T10131018  RH  097%=      5-min Rain = 0
KHO1 221203Z 03004KT M01/M02 A2988 RMK A01 T10141018  RH  097%=      5-min Rain = 0
KHO1 221204Z 03004KT M01/M02 A2988 RMK A01 T10141019  RH  097%=      5-min Rain = 0
KHO1 221205Z 04004KT M02/M02 A2988 RMK A01 T10151019  RH  097%=      5-min Rain = 0
KHO1 221206Z 04005KT M02/M02 A2988 RMK A01 T10151019  RH  097%=      5-min Rain = 0
KHO1 221207Z 04005KT M02/M02 A2988 RMK A01 T10151019  RH  097%=      5-min Rain = 0
KHO1 221208Z 04004KT M02/M02 A2988 RMK A01 T10161020  RH  097%=      5-min Rain = 0
KHO1 221209Z 04004KT M02/M02 A2988 RMK A01 T10171021  RH  097%=      5-min Rain = 0
KHO1 221210Z 04004KT M02/M02 A2988 RMK A01 T10171022  RH  097%=      5-min Rain = 0
KHO1 221211Z 04004KT M02/M02 A2988 RMK A01 T10181022  RH  097%=      5-min Rain = 0
KHO1 221212Z 05004KT M02/M02 A2988 RMK A01 T10181022  RH  097%=      5-min Rain = 0
KHO1 221213Z 05003KT M02/M02 A2988 RMK A01 T10191023  RH  097%=      5-min Rain = 0
KHO1 221214Z 05003KT M02/M02 A2988 RMK A01 T10191022  RH  097%=      5-min Rain = 0
KHO1 221215Z 05003KT M02/M02 A2988 RMK A01 T10181022  RH  098%=      5-min Rain = 0
KHO1 221216Z 05003KT M02/M02 A2988 RMK A01 T10191022  RH  098%=      5-min Rain = 0
KHO1 221217Z 05003KT M02/M02 A2989 RMK A01 T10191022  RH  098%=      5-min Rain = 0
KHO1 221218Z 05004KT M02/M02 A2989 RMK A01 T10191022  RH  098%=      5-min Rain = 0
KHO1 221219Z 05004KT M02/M02 A2989 RMK A01 T10181021  RH  098%=      5-min Rain = 0
KHO1 221220Z 05004KT M02/M02 A2989 RMK A01 T10181021  RH  098%=      5-min Rain = 0
KHO1 221221Z 05004KT M02/M02 A2989 RMK A01 T10171019  RH  098%=      5-min Rain = 0
KHO1 221222Z 04004KT M02/M02 A2989 RMK A01 T10161019  RH  099%=      5-min Rain = 0
KHO1 221223Z 04004KT M02/M02 A2989 RMK A01 T10171019  RH  098%=      5-min Rain = 0
KHO1 221224Z 04003KT M02/M02 A2989 RMK A01 T10171020  RH  098%=      5-min Rain = 0
KHO1 221225Z 05003KT M02/M02 A2989 RMK A01 T10181021  RH  098%=      5-min Rain = 0
KHO1 221226Z 06002KT M02/M02 A2989 RMK A01 T10181021  RH  098%=      5-min Rain = 0
KHO1 221227Z 07002KT M02/M02 A2989 RMK A01 T10181020  RH  098%=      5-min Rain = 0
KHO1 221228Z 07003KT M02/M02 A2989 RMK A01 T10171020  RH  098%=      5-min Rain = 0
KHO1 221229Z 07003KT M02/M02 A2989 RMK A01 T10171019  RH  098%=      5-min Rain = 0
KHO1 221230Z 07003KT M02/M02 A2989 RMK A01 T10171019  RH  098%=      5-min Rain = 0
KHO1 221231Z 06003KT M02/M02 A2989 RMK A01 T10171020  RH  098%=      5-min Rain = 0
KHO1 221232Z 06003KT M02/M02 A2989 RMK A01 T10171020  RH  098%=      5-min Rain = 0
KHO1 221233Z 07003KT M02/M02 A2989 RMK A01 T10171019  RH  098%=      5-min Rain = 0
KHO1 221234Z 07003KT M02/M02 A2989 RMK A01 T10171019  RH  098%=      5-min Rain = 0
KHO1 221235Z 07003KT M02/M02 A2989 RMK A01 T10171019  RH  098%=      5-min Rain = 0
KHO1 221236Z 07003KT M02/M02 A2989 RMK A01 T10171019  RH  098%=      5-min Rain = 0
KHO1 221237Z 07003KT M02/M02 A2989 RMK A01 T10171019  RH  098%=      5-min Rain = 0
KHO1 221238Z 08003KT M02/M02 A2989 RMK A01 T10171019  RH  098%=      5-min Rain = 0
KHO1 221239Z 08003KT M02/M02 A2989 RMK A01 T10171019  RH  098%=      5-min Rain = 0
KHO1 221240Z 08003KT M02/M02 A2989 RMK A01 T10171020  RH  098%=      5-min Rain = 0
KHO1 221241Z 08003KT M02/M02 A2989 RMK A01 T10181020  RH  098%=      5-min Rain = 0
KHO1 221242Z 07003KT M02/M02 A2989 RMK A01 T10181020  RH  098%=      5-min Rain = 0
KHO1 221243Z 08003KT M02/M02 A299 RMK A01 T10181020  RH  098%=      5-min Rain = 0
KHO1 221244Z 08003KT M02/M02 A299 RMK A01 T10181020  RH  098%=      5-min Rain = 0
KHO1 221245Z 07004KT M02/M02 A299 RMK A01 T10171019  RH  099%=      5-min Rain = 0
KHO1 221246Z 07004KT M02/M02 A299 RMK A01 T10171019  RH  099%=      5-min Rain = 0
KHO1 221247Z 07003KT M02/M02 A299 RMK A01 T10171019  RH  099%=      5-min Rain = 0
KHO1 221248Z 07003KT M02/M02 A299 RMK A01 T10171019  RH  099%=      5-min Rain = 0
KHO1 221249Z 08003KT M02/M02 A299 RMK A01 T10171019  RH  099%=      5-min Rain = 0
KHO1 221250Z 08003KT M02/M02 A299 RMK A01 T10171019  RH  099%=      5-min Rain = 0
KHO1 221251Z 07003KT M02/M02 A299 RMK A01 T10171019  RH  099%=      5-min Rain = 0
KHO1 221252Z 06003KT M02/M02 A299 RMK A01 T10171019  RH  099%=      5-min Rain = 0
KHO1 221253Z 06003KT M02/M02 A299 RMK A01 T10171019  RH  099%=      5-min Rain = 0
KHO1 221254Z 07003KT M02/M02 A299 RMK A01 T10171018  RH  099%=      5-min Rain = 0
KHO1 221255Z 06003KT M02/M02 A299 RMK A01 T10161018  RH  099%=      5-min Rain = 0
KHO1 221256Z 06003KT M02/M02 A299 RMK A01 T10161018  RH  099%=      5-min Rain = 0
KHO1 221257Z 07003KT M02/M02 A299 RMK A01 T10171018  RH  099%=      5-min Rain = 0
KHO1 221258Z 07003KT M02/M02 A299 RMK A01 T10171019  RH  099%=      5-min Rain = 0
KHO1 221259Z 08003KT M02/M02 A299 RMK A01 T10171020  RH  098%=      5-min Rain = 0
KHO1 221300Z 07003KT M02/M02 A299 RMK A01 T10181021  RH  098%=      5-min Rain = 0
KHO1 221301Z 08003KT M02/M02 A299 RMK A01 T10191021  RH  098%=      5-min Rain = 0
KHO1 221302Z 07003KT M02/M02 A299 RMK A01 T10191021  RH  098%=      5-min Rain = 0
KHO1 221303Z 07003KT M02/M02 A299 RMK A01 T10191021  RH  098%=      5-min Rain = 0
KHO1 221304Z 07002KT M02/M02 A299 RMK A01 T10191021  RH  099%=      5-min Rain = 0
KHO1 221305Z 07002KT M02/M02 A299 RMK A01 T10181020  RH  099%=      5-min Rain = 0
KHO1 221306Z 07003KT M02/M02 A299 RMK A01 T10181020  RH  099%=      5-min Rain = 0
KHO1 221307Z 06002KT M02/M02 A299 RMK A01 T10181020  RH  099%=      5-min Rain = 0
KHO1 221308Z 06002KT M02/M02 A299 RMK A01 T10181020  RH  099%=      5-min Rain = 0
KHO1 221309Z 06002KT M02/M02 A299 RMK A01 T10181020  RH  099%=      5-min Rain = 0
KHO1 221310Z 07002KT M02/M02 A299 RMK A01 T10181020  RH  099%=      5-min Rain = 0
KHO1 221311Z 06002KT M02/M02 A299 RMK A01 T10181019  RH  099%=      5-min Rain = 0
KHO1 221312Z 06002KT M02/M02 A299 RMK A01 T10181019  RH  099%=      5-min Rain = 0
KHO1 221313Z 06002KT M02/M02 A299 RMK A01 T10181019  RH  099%=      5-min Rain = 0
KHO1 221314Z 07003KT M02/M02 A299 RMK A01 T10181019  RH  099%=      5-min Rain = 0
KHO1 221315Z 07003KT M02/M02 A299 RMK A01 T10181019  RH  099%=      5-min Rain = 0
KHO1 221316Z 07003KT M02/M02 A299 RMK A01 T10181019  RH  099%=      5-min Rain = 0
KHO1 221317Z 07003KT M02/M02 A299 RMK A01 T10171019  RH  099%=      5-min Rain = 0
KHO1 221318Z 07002KT M02/M02 A299 RMK A01 T10171018  RH  099%=      5-min Rain = 0
KHO1 221319Z 07003KT M02/M02 A299 RMK A01 T10171018  RH  099%=      5-min Rain = 0
KHO1 221320Z 06002KT M02/M02 A299 RMK A01 T10171018  RH  099%=      5-min Rain = 0
KHO1 221321Z 07002KT M02/M02 A299 RMK A01 T10171018  RH  099%=      5-min Rain = 0
KHO1 221322Z 07002KT M02/M02 A299 RMK A01 T10171018  RH  099%=      5-min Rain = 0
KHO1 221323Z 07002KT M02/M02 A299 RMK A01 T10161018  RH  099%=      5-min Rain = 0
KHO1 221324Z 07002KT M02/M02 A299 RMK A01 T10171018  RH  099%=      5-min Rain = 0
KHO1 221325Z 07002KT M02/M02 A299 RMK A01 T10171018  RH  099%=      5-min Rain = 0
KHO1 221326Z 06002KT M02/M02 A299 RMK A01 T10171018  RH  099%=      5-min Rain = 0
KHO1 221327Z 06002KT M02/M02 A299 RMK A01 T10171018  RH  099%=      5-min Rain = 0
KHO1 221328Z 06002KT M02/M02 A299 RMK A01 T10171018  RH  099%=      5-min Rain = 0
KHO1 221329Z 06002KT M02/M02 A299 RMK A01 T10171018  RH  099%=      5-min Rain = 0
KHO1 221330Z 06002KT M02/M02 A299 RMK A01 T10171018  RH  099%=      5-min Rain = 0
KHO1 221331Z 06002KT M02/M02 A299 RMK A01 T10171018  RH  099%=      5-min Rain = 0
KHO1 221332Z 07002KT M02/M02 A299 RMK A01 T10161018  RH  099%=      5-min Rain = 0
KHO1 221333Z 07002KT M02/M02 A299 RMK A01 T10161018  RH  099%=      5-min Rain = 0
KHO1 221334Z 07002KT M02/M02 A299 RMK A01 T10161017  RH  099%=      5-min Rain = 0
KHO1 221335Z 07002KT M02/M02 A299 RMK A01 T10161017  RH  099%=      5-min Rain = 0
KHO1 221336Z 07002KT M02/M02 A299 RMK A01 T10161017  RH  099%=      5-min Rain = 0
KHO1 221337Z 07002KT M02/M02 A299 RMK A01 T10161017  RH  099%=      5-min Rain = 0
KHO1 221338Z 07002KT M02/M02 A299 RMK A01 T10161017  RH  099%=      5-min Rain = 0
KHO1 221339Z 09002KT M02/M02 A299 RMK A01 T10151016  RH  099%=      5-min Rain = 0
KHO1 221340Z 08002KT M02/M02 A299 RMK A01 T10151016  RH  099%=      5-min Rain = 0
KHO1 221341Z 08002KT M02/M02 A299 RMK A01 T10151016  RH  099%=      5-min Rain = 0
KHO1 221342Z 09002KT M02/M02 A299 RMK A01 T10151016  RH  099%=      5-min Rain = 0
KHO1 221343Z 10002KT M01/M02 A299 RMK A01 T10141015  RH  099%=      5-min Rain = 0
KHO1 221344Z 10004KT M01/M02 A299 RMK A01 T10141015  RH  099%=      5-min Rain = 0
KHO1 221345Z 10003KT M01/M01 A299 RMK A01 T10131014  RH  100%=      5-min Rain = 0
KHO1 221346Z 10004KT M01/M01 A299 RMK A01 T10121013  RH  100%=      5-min Rain = 0
KHO1 221347Z 10004KT M01/M01 A299 RMK A01 T10121012  RH  100%=      5-min Rain = 0
KHO1 221348Z 11004KT M01/M01 A299 RMK A01 T10111012  RH  100%=      5-min Rain = 0
KHO1 221349Z 10004KT M01/M01 A2991 RMK A01 T10111011  RH  100%=      5-min Rain = 0
KHO1 221350Z 10003KT M01/M01 A2991 RMK A01 T10111011  RH  100%=      5-min Rain = 0
KHO1 221351Z 09003KT M01/M01 A2991 RMK A01 T10111011  RH  100%=      5-min Rain = 0
KHO1 221352Z 09003KT M01/M01 A2991 RMK A01 T10101011  RH  100%=      5-min Rain = 0
KHO1 221353Z 09003KT M01/M01 A2991 RMK A01 T10101010  RH  100%=      5-min Rain = 0
KHO1 221354Z 09003KT M01/M01 A2991 RMK A01 T10091010  RH  100%=      5-min Rain = 0
KHO1 221355Z 08002KT M01/M01 A2991 RMK A01 T10091010  RH  100%=      5-min Rain = 0
KHO1 221356Z 08002KT M01/M01 A2991 RMK A01 T10091009  RH  100%=      5-min Rain = 0
KHO1 221357Z 07002KT M01/M01 A2991 RMK A01 T10081008  RH  100%=      5-min Rain = 0
KHO1 221358Z 09002KT M01/M01 A2991 RMK A01 T10081008  RH  100%=      5-min Rain = 0
KHO1 221359Z 08002KT M01/M01 A2991 RMK A01 T10081008  RH  100%=      5-min Rain = 0
KHO1 221400Z 09003KT M01/M01 A2991 RMK A01 T10071008  RH  100%=      5-min Rain = 0
KHO1 221401Z 09003KT M01/M01 A2991 RMK A01 T10071008  RH  100%=      5-min Rain = 0
KHO1 221402Z 09004KT M01/M01 A2991 RMK A01 T10071008  RH  100%=      5-min Rain = 0
KHO1 221403Z 11004KT M01/M01 A2991 RMK A01 T10061007  RH  100%=      5-min Rain = 0
KHO1 221404Z 10004KT M01/M01 A2991 RMK A01 T10061006  RH  100%=      5-min Rain = 0
KHO1 221405Z 10003KT M01/M01 A2991 RMK A01 T10051005  RH  100%=      5-min Rain = 0
KHO1 221406Z 10003KT M01/M01 A2991 RMK A01 T10051005  RH  100%=      5-min Rain = 0
KHO1 221407Z 10005KT M00/M00 A2991 RMK A01 T10041004  RH  100%=      5-min Rain = 0
KHO1 221408Z 10004KT M00/M00 A2991 RMK A01 T10031003  RH  100%=      5-min Rain = 0
KHO1 221409Z 10004KT M00/M00 A2992 RMK A01 T10031003  RH  100%=      5-min Rain = 0
KHO1 221410Z 11006KT M00/M00 A2992 RMK A01 T10021002  RH  100%=      5-min Rain = 0
KHO1 221411Z 11007KT M00/M00 A2991 RMK A01 T10021002  RH  100%=      5-min Rain = 0
KHO1 221412Z 09003KT M00/M00 A2991 RMK A01 T10021002  RH  100%=      5-min Rain = 0
KHO1 221413Z 10004KT M00/M00 A2991 RMK A01 T10021002  RH  100%=      5-min Rain = 0
KHO1 221414Z 10004KT M00/M00 A2991 RMK A01 T10021002  RH  100%=      5-min Rain = 0
KHO1 221415Z 11006KT M00/M00 A2991 RMK A01 T10021002  RH  100%=      5-min Rain = 0
KHO1 221416Z 10004KT M00/M00 A2992 RMK A01 T10021002  RH  100%=      5-min Rain = 0
KHO1 221417Z 11006KT M00/M00 A2992 RMK A01 T10021002  RH  100%=      5-min Rain = 0
KHO1 221418Z 10007KT M00/M00 A2992 RMK A01 T10021002  RH  100%=      5-min Rain = 0
KHO1 221419Z 11007KT M00/M00 A2992 RMK A01 T10021002  RH  100%=      5-min Rain = 0
KHO1 221420Z 11006KT M00/M00 A2992 RMK A01 T10021002  RH  100%=      5-min Rain = 0
KHO1 221421Z 12007KT M00/M00 A2992 RMK A01 T10021002  RH  100%=      5-min Rain = 0
KHO1 221422Z 11006KT M00/M00 A2992 RMK A01 T10021002  RH  100%=      5-min Rain = 0
KHO1 221423Z 12008KT M00/M00 A2992 RMK A01 T10021002  RH  100%=      5-min Rain = 0
KHO1 221424Z 11007KT M00/M00 A2992 RMK A01 T10021002  RH  100%=      5-min Rain = 0
KHO1 221425Z 11009KT M00/M00 A2992 RMK A01 T10021002  RH  100%=      5-min Rain = 0
KHO1 221426Z 11007KT M00/M00 A2992 RMK A01 T10031003  RH  100%=      5-min Rain = 0
KHO1 221427Z 11008KT M00/M00 A2992 RMK A01 T10031003  RH  100%=      5-min Rain = 0
KHO1 221428Z 11008KT M00/M00 A2992 RMK A01 T10031003  RH  100%=      5-min Rain = 0
KHO1 221429Z 11006KT M00/M00 A2992 RMK A01 T10031003  RH  100%=      5-min Rain = 0
KHO1 221430Z 10005KT M00/M00 A2992 RMK A01 T10031003  RH  100%=      5-min Rain = 0
KHO1 221431Z 11006KT M00/M00 A2992 RMK A01 T10021002  RH  100%=      5-min Rain = 0
KHO1 221432Z 11006KT M00/M00 A2992 RMK A01 T10011001  RH  100%=      5-min Rain = 0
KHO1 221433Z 10007KT M00/M00 A2992 RMK A01 T10011001  RH  100%=      5-min Rain = 0
KHO1 221434Z 12006KT 00/00 A2993 RMK A01 T00-000-0  RH  100%=      5-min Rain = 0
KHO1 221435Z 12006KT M00/M00 A2993 RMK A01 T10011001  RH  100%=      5-min Rain = 0
KHO1 221436Z 12006KT M00/M00 A2993 RMK A01 T10011001  RH  100%=      5-min Rain = 0
KHO1 221437Z 11005KT M00/M00 A2993 RMK A01 T10011001  RH  100%=      5-min Rain = 0
KHO1 221438Z 11006KT M00/M00 A2993 RMK A01 T10011001  RH  100%=      5-min Rain = 0
KHO1 221439Z 10005KT 00/00 A2993 RMK A01 T00-000-0  RH  100%=      5-min Rain = 0
KHO1 221440Z 10006KT 00/00 A2993 RMK A01 T00000000  RH  100%=      5-min Rain = 0
KHO1 221441Z 10005KT 00/00 A2993 RMK A01 T00010001  RH  100%=      5-min Rain = 0
KHO1 221442Z 11005KT 00/00 A2993 RMK A01 T00020002  RH  100%=      5-min Rain = 0
KHO1 221443Z 11005KT 00/00 A2993 RMK A01 T00020002  RH  100%=      5-min Rain = 0
KHO1 221444Z 10005KT 00/00 A2993 RMK A01 T00020002  RH  100%=      5-min Rain = 0
KHO1 221445Z 10006KT 00/00 A2993 RMK A01 T00020002  RH  100%=      5-min Rain = 0
KHO1 221446Z 10005KT 00/00 A2993 RMK A01 T00020002  RH  100%=      5-min Rain = 0
KHO1 221447Z 10006KT 00/00 A2993 RMK A01 T00030003  RH  100%=      5-min Rain = 0
KHO1 221448Z 11005KT 00/00 A2993 RMK A01 T00030003  RH  100%=      5-min Rain = 0
KHO1 221449Z 11006KT 00/00 A2993 RMK A01 T00040004  RH  100%=      5-min Rain = 0
KHO1 221450Z 11006KT 00/00 A2993 RMK A01 T00040004  RH  100%=      5-min Rain = 0
KHO1 221451Z 10006KT 00/00 A2993 RMK A01 T00040004  RH  100%=      5-min Rain = 0
KHO1 221452Z 09004KT 00/00 A2993 RMK A01 T00040004  RH  100%=      5-min Rain = 0
KHO1 221453Z 09005KT 01/01 A2993 RMK A01 T00050005  RH  100%=      5-min Rain = 0
KHO1 221454Z 09005KT 01/01 A2994 RMK A01 T00050005  RH  100%=      5-min Rain = 0
KHO1 221455Z 09004KT 01/01 A2994 RMK A01 T00050005  RH  100%=      5-min Rain = 0
KHO1 221456Z 10006KT 01/01 A2994 RMK A01 T00060006  RH  100%=      5-min Rain = 0
KHO1 221457Z 11007KT 01/01 A2994 RMK A01 T00060006  RH  100%=      5-min Rain = 0
KHO1 221458Z 12007KT 01/01 A2994 RMK A01 T00070007  RH  100%=      5-min Rain = 0
KHO1 221459Z 12006KT 01/01 A2994 RMK A01 T00060006  RH  100%=      5-min Rain = 0
KHO1 221500Z 11005KT 01/01 A2994 RMK A01 T00060006  RH  100%=      5-min Rain = 0
KHO1 221501Z 10004KT 01/01 A2994 RMK A01 T00070007  RH  100%=      5-min Rain = 0
KHO1 221502Z 12005KT 01/01 A2994 RMK A01 T00080008  RH  100%=      5-min Rain = 0
KHO1 221503Z 13006KT 01/01 A2994 RMK A01 T00080008  RH  100%=      5-min Rain = 0
KHO1 221504Z 12007KT 01/01 A2994 RMK A01 T00080008  RH  100%=      5-min Rain = 0
KHO1 221505Z 11006KT 01/01 A2994 RMK A01 T00070007  RH  100%=      5-min Rain = 0
KHO1 221506Z 11006KT 01/01 A2994 RMK A01 T00070007  RH  100%=      5-min Rain = 0
KHO1 221507Z 11006KT 01/01 A2994 RMK A01 T00080008  RH  100%=      5-min Rain = 0
KHO1 221508Z 10005KT 01/01 A2994 RMK A01 T00090009  RH  100%=      5-min Rain = 0
KHO1 221509Z 10005KT 01/01 A2994 RMK A01 T00100010  RH  100%=      5-min Rain = 0
KHO1 221510Z 09005KT 01/01 A2994 RMK A01 T00100010  RH  100%=      5-min Rain = 0
KHO1 221511Z 10006KT 01/01 A2994 RMK A01 T00110011  RH  100%=      5-min Rain = 0
KHO1 221512Z 10006KT 01/01 A2994 RMK A01 T00120012  RH  100%=      5-min Rain = 0
KHO1 221513Z 10007KT 01/01 A2994 RMK A01 T00120012  RH  100%=      5-min Rain = 0
KHO1 221514Z 09006KT 01/01 A2994 RMK A01 T00120012  RH  100%=      5-min Rain = 0
KHO1 221515Z 11006KT 01/01 A2994 RMK A01 T00130013  RH  100%=      5-min Rain = 0
KHO1 221516Z 13008KT 01/01 A2994 RMK A01 T00130013  RH  100%=      5-min Rain = 0
KHO1 221517Z 13007KT 01/01 A2994 RMK A01 T00120012  RH  100%=      5-min Rain = 0
KHO1 221518Z 12007KT 01/01 A2994 RMK A01 T00110011  RH  100%=      5-min Rain = 0
KHO1 221519Z 11007KT 01/01 A2994 RMK A01 T00110011  RH  100%=      5-min Rain = 0
KHO1 221520Z 11008KT 01/01 A2994 RMK A01 T00120012  RH  100%=      5-min Rain = 0
KHO1 221521Z 11007KT 01/01 A2994 RMK A01 T00120012  RH  100%=      5-min Rain = 0
KHO1 221522Z 12008KT 01/01 A2994 RMK A01 T00120012  RH  100%=      5-min Rain = 0
KHO1 221523Z 12007KT 01/01 A2994 RMK A01 T00120012  RH  100%=      5-min Rain = 0
KHO1 221524Z 12006KT 01/01 A2994 RMK A01 T00120012  RH  100%=      5-min Rain = 0
KHO1 221525Z 12007KT 01/01 A2994 RMK A01 T00130013  RH  100%=      5-min Rain = 0
KHO1 221526Z 12007KT 01/01 A2994 RMK A01 T00130013  RH  100%=      5-min Rain = 0
KHO1 221527Z 12006KT 01/01 A2994 RMK A01 T00140014  RH  100%=      5-min Rain = 0
KHO1 221528Z 11007KT 02/02 A2994 RMK A01 T00150015  RH  100%=      5-min Rain = 0
KHO1 221529Z 11006KT 02/02 A2994 RMK A01 T00150015  RH  100%=      5-min Rain = 0
KHO1 221530Z 11006KT 02/02 A2994 RMK A01 T00160016  RH  100%=      5-min Rain = 0
KHO1 221531Z 12006KT 02/02 A2994 RMK A01 T00170017  RH  100%=      5-min Rain = 0
KHO1 221532Z 13005KT 02/02 A2994 RMK A01 T00180018  RH  100%=      5-min Rain = 0
KHO1 221533Z 14006KT 02/02 A2994 RMK A01 T00180018  RH  100%=      5-min Rain = 0
KHO1 221534Z 13006KT 02/02 A2994 RMK A01 T00180018  RH  100%=      5-min Rain = 0
KHO1 221535Z 14006KT 02/02 A2994 RMK A01 T00180018  RH  100%=      5-min Rain = 0
KHO1 221536Z 13007KT 02/02 A2994 RMK A01 T00190019  RH  100%=      5-min Rain = 0
KHO1 221537Z 14006KT 02/02 A2994 RMK A01 T00180018  RH  100%=      5-min Rain = 0
KHO1 221538Z 14006KT 02/02 A2994 RMK A01 T00200020  RH  100%=      5-min Rain = 0
KHO1 221539Z 13005KT 02/02 A2994 RMK A01 T00190019  RH  100%=      5-min Rain = 0
KHO1 221540Z 12004KT 02/02 A2994 RMK A01 T00210021  RH  100%=      5-min Rain = 0
KHO1 221541Z 12005KT 02/02 A2994 RMK A01 T00220022  RH  100%=      5-min Rain = 0
KHO1 221542Z 11006KT 02/02 A2994 RMK A01 T00220022  RH  100%=      5-min Rain = 0
KHO1 221543Z 11006KT 02/02 A2994 RMK A01 T00220022  RH  100%=      5-min Rain = 0
KHO1 221544Z 11005KT 02/02 A2994 RMK A01 T00230023  RH  100%=      5-min Rain = 0
KHO1 221545Z 11005KT 02/02 A2994 RMK A01 T00230023  RH  100%=      5-min Rain = 0
KHO1 221546Z 11005KT 02/02 A2994 RMK A01 T00240024  RH  100%=      5-min Rain = 0
KHO1 221547Z 13005KT 02/02 A2994 RMK A01 T00240024  RH  100%=      5-min Rain = 0
KHO1 221548Z 13005KT 02/02 A2994 RMK A01 T00240024  RH  100%=      5-min Rain = 0
KHO1 221549Z 12004KT 03/03 A2994 RMK A01 T00260026  RH  100%=      5-min Rain = 0
KHO1 221550Z 14005KT 03/03 A2994 RMK A01 T00270027  RH  100%=      5-min Rain = 0
KHO1 221551Z 14004KT 03/03 A2994 RMK A01 T00260026  RH  100%=      5-min Rain = 0
KHO1 221552Z 12005KT 03/03 A2994 RMK A01 T00270027  RH  100%=      5-min Rain = 0
KHO1 221553Z 13004KT 03/03 A2994 RMK A01 T00270027  RH  100%=      5-min Rain = 0
KHO1 221554Z 12006KT 03/03 A2994 RMK A01 T00270027  RH  100%=      5-min Rain = 0
KHO1 221555Z 11006KT 03/03 A2995 RMK A01 T00280028  RH  100%=      5-min Rain = 0
KHO1 221556Z 11006KT 03/03 A2995 RMK A01 T00280028  RH  100%=      5-min Rain = 0
KHO1 221557Z 12007KT 03/03 A2995 RMK A01 T00290029  RH  100%=      5-min Rain = 0
KHO1 221558Z 13007KT 03/03 A2995 RMK A01 T00290029  RH  100%=      5-min Rain = 0
KHO1 221559Z 15005KT 03/03 A2995 RMK A01 T00290029  RH  100%=      5-min Rain = 0
KHO1 221600Z 13006KT 03/03 A2995 RMK A01 T00300030  RH  100%=      5-min Rain = 0
KHO1 221601Z 14006KT 03/03 A2994 RMK A01 T00290029  RH  100%=      5-min Rain = 0
KHO1 221602Z 14007KT 03/03 A2995 RMK A01 T00290029  RH  100%=      5-min Rain = 0
KHO1 221603Z 13008KT 03/03 A2994 RMK A01 T00280028  RH  100%=      5-min Rain = 0
KHO1 221604Z 14006KT 03/03 A2994 RMK A01 T00290029  RH  100%=      5-min Rain = 0
KHO1 221605Z 14006KT 03/03 A2994 RMK A01 T00290029  RH  100%=      5-min Rain = 0
KHO1 221606Z 13007KT 03/03 A2994 RMK A01 T00300030  RH  100%=      5-min Rain = 0
KHO1 221607Z 14008KT 03/03 A2994 RMK A01 T00300030  RH  100%=      5-min Rain = 0
KHO1 221608Z 16007KT 03/03 A2994 RMK A01 T00290029  RH  100%=      5-min Rain = 0
KHO1 221609Z 16006KT 03/03 A2994 RMK A01 T00290029  RH  100%=      5-min Rain = 0
KHO1 221610Z 15006KT 03/03 A2994 RMK A01 T00290029  RH  100%=      5-min Rain = 0
KHO1 221611Z 14007KT 03/03 A2994 RMK A01 T00300030  RH  100%=      5-min Rain = 0
KHO1 221612Z 14007KT 03/03 A2994 RMK A01 T00310031  RH  100%=      5-min Rain = 0
KHO1 221613Z 13008KT 03/03 A2994 RMK A01 T00300030  RH  100%=      5-min Rain = 0
KHO1 221614Z 13006KT 03/03 A2994 RMK A01 T00310031  RH  100%=      5-min Rain = 0
KHO1 221615Z 13006KT 03/03 A2994 RMK A01 T00320032  RH  100%=      5-min Rain = 0
KHO1 221616Z 15006KT 03/03 A2994 RMK A01 T00330033  RH  100%=      5-min Rain = 0
KHO1 221617Z 15007KT 03/03 A2994 RMK A01 T00330033  RH  100%=      5-min Rain = 0
KHO1 221618Z 15008KT 03/03 A2994 RMK A01 T00330033  RH  100%=      5-min Rain = 0
KHO1 221619Z 15005KT 03/03 A2994 RMK A01 T00330033  RH  100%=      5-min Rain = 0
KHO1 221620Z 14006KT 03/03 A2994 RMK A01 T00340034  RH  100%=      5-min Rain = 0
KHO1 221621Z 14005KT 03/03 A2994 RMK A01 T00330033  RH  100%=      5-min Rain = 0
KHO1 221622Z 13006KT 03/03 A2994 RMK A01 T00340034  RH  100%=      5-min Rain = 0
KHO1 221623Z 13005KT 03/03 A2994 RMK A01 T00340034  RH  100%=      5-min Rain = 0
KHO1 221624Z 15007KT 04/04 A2994 RMK A01 T00360036  RH  100%=      5-min Rain = 0
KHO1 221625Z 14005KT 04/04 A2994 RMK A01 T00350035  RH  100%=      5-min Rain = 0
KHO1 221626Z 14006KT 04/04 A2994 RMK A01 T00360036  RH  100%=      5-min Rain = 0
KHO1 221627Z 13006KT 04/04 A2994 RMK A01 T00350035  RH  100%=      5-min Rain = 0
KHO1 221628Z 12006KT 04/04 A2994 RMK A01 T00360036  RH  100%=      5-min Rain = 0
KHO1 221629Z 12007KT 04/04 A2994 RMK A01 T00370037  RH  100%=      5-min Rain = 0
KHO1 221630Z 12006KT 04/04 A2994 RMK A01 T00370037  RH  100%=      5-min Rain = 0
KHO1 221631Z 12007KT 04/04 A2994 RMK A01 T00380038  RH  100%=      5-min Rain = 0
KHO1 221632Z 12007KT 04/04 A2994 RMK A01 T00380039  RH  100%=      5-min Rain = 0
KHO1 221633Z 13006KT 04/04 A2994 RMK A01 T00390039  RH  100%=      5-min Rain = 0
KHO1 221634Z 12005KT 04/04 A2994 RMK A01 T00390040  RH  100%=      5-min Rain = 0
KHO1 221635Z 12007KT 04/04 A2994 RMK A01 T00390039  RH  100%=      5-min Rain = 0
KHO1 221636Z 14006KT 04/04 A2994 RMK A01 T00390039  RH  100%=      5-min Rain = 0
KHO1 221637Z 13006KT 04/04 A2994 RMK A01 T00400040  RH  100%=      5-min Rain = 0
KHO1 221638Z 13005KT 04/04 A2994 RMK A01 T00400040  RH  100%=      5-min Rain = 0
KHO1 221639Z 12005KT 04/04 A2994 RMK A01 T00400040  RH  100%=      5-min Rain = 0
KHO1 221640Z 13007KT 04/04 A2994 RMK A01 T00400040  RH  100%=      5-min Rain = 0
KHO1 221641Z 13006KT 04/04 A2994 RMK A01 T00380038  RH  100%=      5-min Rain = 0
KHO1 221642Z 13004KT 04/04 A2994 RMK A01 T00390039  RH  100%=      5-min Rain = 0
KHO1 221643Z 13005KT 04/04 A2994 RMK A01 T00400040  RH  100%=      5-min Rain = 0
KHO1 221644Z 13007KT 04/04 A2994 RMK A01 T00410041  RH  100%=      5-min Rain = 0
KHO1 221645Z 13007KT 04/04 A2994 RMK A01 T00420042  RH  100%=      5-min Rain = 0
KHO1 221646Z 12005KT 04/04 A2994 RMK A01 T00430043  RH  100%=      5-min Rain = 0
KHO1 221647Z 12006KT 04/04 A2993 RMK A01 T00440044  RH  100%=      5-min Rain = 0
KHO1 221648Z 11006KT 05/05 A2993 RMK A01 T00470047  RH  100%=      5-min Rain = 0
KHO1 221649Z 12006KT 05/05 A2993 RMK A01 T00480048  RH  100%=      5-min Rain = 0
KHO1 221650Z 13006KT 05/05 A2993 RMK A01 T00480048  RH  100%=      5-min Rain = 0
KHO1 221651Z 13008KT 05/05 A2993 RMK A01 T00460046  RH  100%=      5-min Rain = 0
KHO1 221652Z 13005KT 05/05 A2993 RMK A01 T00470046  RH  099%=      5-min Rain = 0
KHO1 221653Z 14006KT 05/05 A2994 RMK A01 T00480047  RH  099%=      5-min Rain = 0
KHO1 221654Z 15009KT 05/05 A2994 RMK A01 T00480046  RH  099%=      5-min Rain = 0
KHO1 221655Z 15008KT 05/04 A2994 RMK A01 T00470043  RH  098%=      5-min Rain = 0
KHO1 221656Z 15006KT 05/04 A2994 RMK A01 T00450040  RH  096%=      5-min Rain = 0
KHO1 221657Z 14006KT 04/04 A2994 RMK A01 T00440038  RH  096%=      5-min Rain = 0
KHO1 221658Z 14006KT 05/04 A2994 RMK A01 T00450039  RH  096%=      5-min Rain = 0
KHO1 221659Z 13008KT 05/04 A2993 RMK A01 T00460042  RH  097%=      5-min Rain = 0
KHO1 221700Z 13006KT 05/04 A2993 RMK A01 T00490044  RH  097%=      5-min Rain = 0
KHO1 221701Z 14006KT 05/04 A2993 RMK A01 T00480042  RH  096%=      5-min Rain = 0
KHO1 221702Z 13005KT 05/04 A2993 RMK A01 T00480041  RH  095%=      5-min Rain = 0
KHO1 221703Z 14008KT 05/05 A2993 RMK A01 T00520045  RH  096%=      5-min Rain = 0
KHO1 221704Z 15006KT 05/04 A2993 RMK A01 T00500040  RH  093%=      5-min Rain = 0
KHO1 221705Z 15006KT 05/04 A2993 RMK A01 T00500038  RH  092%=      5-min Rain = 0
KHO1 221706Z 15005KT 05/04 A2993 RMK A01 T00490038  RH  092%=      5-min Rain = 0
KHO1 221707Z 13007KT 05/04 A2993 RMK A01 T00500040  RH  093%=      5-min Rain = 0
KHO1 221708Z 13008KT 05/04 A2993 RMK A01 T00510040  RH  093%=      5-min Rain = 0
KHO1 221709Z 13007KT 05/04 A2994 RMK A01 T00510040  RH  092%=      5-min Rain = 0
KHO1 221710Z 12007KT 05/04 A2993 RMK A01 T00520040  RH  092%=      5-min Rain = 0
KHO1 221711Z 14009KT 05/04 A2993 RMK A01 T00530042  RH  092%=      5-min Rain = 0
KHO1 221712Z 14008KT 05/04 A2993 RMK A01 T00530039  RH  091%=      5-min Rain = 0
KHO1 221713Z 15007KT 05/04 A2993 RMK A01 T00540038  RH  090%=      5-min Rain = 0
KHO1 221714Z 16006KT 05/04 A2993 RMK A01 T00540038  RH  090%=      5-min Rain = 0
KHO1 221715Z 16007KT 06/04 A2993 RMK A01 T00570044  RH  091%=      5-min Rain = 0
KHO1 221716Z 16008KT 06/04 A2993 RMK A01 T00590041  RH  088%=      5-min Rain = 0
KHO1 221717Z 16007KT 06/04 A2993 RMK A01 T00580035  RH  085%=      5-min Rain = 0
KHO1 221718Z 14007KT 06/04 A2993 RMK A01 T00570035  RH  086%=      5-min Rain = 0
KHO1 221719Z 12007KT 06/04 A2993 RMK A01 T00590041  RH  088%=      5-min Rain = 0
KHO1 221720Z 11007KT 06/04 A2993 RMK A01 T00610039  RH  086%=      5-min Rain = 0
KHO1 221721Z 14007KT 06/04 A2993 RMK A01 T00630039  RH  085%=      5-min Rain = 0
KHO1 221722Z 16007KT 06/04 A2993 RMK A01 T00630036  RH  083%=      5-min Rain = 0
KHO1 221723Z 15006KT 06/04 A2993 RMK A01 T00630036  RH  083%=      5-min Rain = 0
KHO1 221724Z 15006KT 06/03 A2993 RMK A01 T00620034  RH  082%=      5-min Rain = 0
KHO1 221725Z 13007KT 06/04 A2993 RMK A01 T00620037  RH  084%=      5-min Rain = 0
KHO1 221726Z 14006KT 06/04 A2993 RMK A01 T00640038  RH  084%=      5-min Rain = 0
KHO1 221727Z 15006KT 07/04 A2993 RMK A01 T00660042  RH  084%=      5-min Rain = 0
KHO1 221728Z 15007KT 07/05 A2993 RMK A01 T00720045  RH  083%=      5-min Rain = 0
KHO1 221729Z 16007KT 07/04 A2993 RMK A01 T00730038  RH  079%=      5-min Rain = 0
KHO1 221730Z 16007KT 07/03 A2993 RMK A01 T00700033  RH  077%=      5-min Rain = 0
KHO1 221731Z 14007KT 07/04 A2993 RMK A01 T00700037  RH  080%=      5-min Rain = 0
KHO1 221732Z 14006KT 07/04 A2993 RMK A01 T00700035  RH  078%=      5-min Rain = 0
KHO1 221733Z 12006KT 07/04 A2993 RMK A01 T00690035  RH  079%=      5-min Rain = 0
KHO1 221734Z 12005KT 07/04 A2993 RMK A01 T00700036  RH  079%=      5-min Rain = 0
KHO1 221735Z 11006KT 07/04 A2993 RMK A01 T00730039  RH  079%=      5-min Rain = 0
KHO1 221736Z 11006KT 08/04 A2992 RMK A01 T00760040  RH  078%=      5-min Rain = 0
KHO1 221737Z 11006KT 08/04 A2992 RMK A01 T00800042  RH  077%=      5-min Rain = 0
KHO1 221738Z 11006KT 08/04 A2992 RMK A01 T00830040  RH  074%=      5-min Rain = 0
KHO1 221739Z 13005KT 08/04 A2992 RMK A01 T00810036  RH  073%=      5-min Rain = 0
KHO1 221740Z 14006KT 08/03 A2992 RMK A01 T00800033  RH  072%=      5-min Rain = 0
KHO1 221741Z 14006KT 08/03 A2992 RMK A01 T00760030  RH  073%=      5-min Rain = 0
KHO1 221742Z 11007KT 08/04 A2992 RMK A01 T00780035  RH  074%=      5-min Rain = 0
KHO1 221743Z 08004KT 08/04 A2992 RMK A01 T00810036  RH  073%=      5-min Rain = 0
KHO1 221744Z 08004KT 08/04 A2992 RMK A01 T00840038  RH  072%=      5-min Rain = 0
KHO1 221745Z 08003KT 09/04 A2992 RMK A01 T00870040  RH  072%=      5-min Rain = 0
KHO1 221746Z 12005KT 09/04 A2992 RMK A01 T00890039  RH  071%=      5-min Rain = 0
KHO1 221747Z 12007KT 09/04 A2992 RMK A01 T00900036  RH  069%=      5-min Rain = 0
KHO1 221748Z 12005KT 09/03 A2992 RMK A01 T00880034  RH  069%=      5-min Rain = 0
KHO1 221749Z 13006KT 09/03 A2992 RMK A01 T00850032  RH  069%=      5-min Rain = 0
KHO1 221750Z 13005KT 08/03 A2992 RMK A01 T00830030  RH  069%=      5-min Rain = 0
KHO1 221751Z 14006KT 08/03 A2991 RMK A01 T00820033  RH  071%=      5-min Rain = 0
KHO1 221752Z 12008KT 09/04 A2991 RMK A01 T00870037  RH  071%=      5-min Rain = 0
KHO1 221753Z 11007KT 09/03 A2991 RMK A01 T00910033  RH  067%=      5-min Rain = 0
KHO1 221754Z 12007KT 09/03 A2991 RMK A01 T00920032  RH  066%=      5-min Rain = 0
KHO1 221755Z 12006KT 09/03 A2991 RMK A01 T00910033  RH  067%=      5-min Rain = 0
KHO1 221756Z 12007KT 09/03 A2991 RMK A01 T00920033  RH  067%=      5-min Rain = 0
KHO1 221757Z 12004KT 09/03 A2991 RMK A01 T00900031  RH  066%=      5-min Rain = 0
KHO1 221758Z 12007KT 09/04 A2991 RMK A01 T00920036  RH  068%=      5-min Rain = 0
KHO1 221759Z 10005KT 10/04 A2991 RMK A01 T00950038  RH  067%=      5-min Rain = 0
KHO1 221800Z 09003KT 10/04 A2991 RMK A01 T00980038  RH  066%=      5-min Rain = 0
KHO1 221801Z 11005KT 10/04 A2991 RMK A01 T01010039  RH  065%=      5-min Rain = 0
KHO1 221802Z 13006KT 10/04 A2991 RMK A01 T01010037  RH  064%=      5-min Rain = 0
KHO1 221803Z 15007KT 10/03 A2991 RMK A01 T00990031  RH  063%=      5-min Rain = 0
KHO1 221804Z 11005KT 10/04 A2991 RMK A01 T00970036  RH  066%=      5-min Rain = 0
KHO1 221805Z 08004KT 10/04 A2991 RMK A01 T01020038  RH  064%=      5-min Rain = 0
KHO1 221806Z 10002KT 10/04 A2991 RMK A01 T01030037  RH  064%=      5-min Rain = 0
KHO1 221807Z 12005KT 10/04 A2991 RMK A01 T01030036  RH  063%=      5-min Rain = 0
KHO1 221808Z 14006KT 10/03 A2991 RMK A01 T01000030  RH  061%=      5-min Rain = 0
KHO1 221809Z 14004KT 10/03 A2991 RMK A01 T00990030  RH  062%=      5-min Rain = 0
KHO1 221810Z 12007KT 10/03 A2991 RMK A01 T01000030  RH  062%=      5-min Rain = 0
KHO1 221811Z 13005KT 10/03 A2991 RMK A01 T01000029  RH  061%=      5-min Rain = 0
KHO1 221812Z 12006KT 10/03 A299 RMK A01 T00990031  RH  062%=      5-min Rain = 0
KHO1 221813Z 10008KT 10/04 A299 RMK A01 T01040035  RH  062%=      5-min Rain = 0
KHO1 221814Z 11006KT 11/04 A299 RMK A01 T01080036  RH  061%=      5-min Rain = 0
KHO1 221815Z 12004KT 11/03 A299 RMK A01 T01080034  RH  060%=      5-min Rain = 0
KHO1 221816Z 11004KT 11/03 A299 RMK A01 T01080033  RH  060%=      5-min Rain = 0
KHO1 221817Z 12006KT 11/03 A299 RMK A01 T01090033  RH  059%=      5-min Rain = 0
KHO1 221818Z 11006KT 11/03 A299 RMK A01 T01100031  RH  058%=      5-min Rain = 0
KHO1 221819Z 11006KT 11/03 A299 RMK A01 T01100031  RH  058%=      5-min Rain = 0
KHO1 221820Z 13006KT 11/03 A299 RMK A01 T01110032  RH  058%=      5-min Rain = 0
KHO1 221821Z 14005KT 11/03 A299 RMK A01 T01070029  RH  059%=      5-min Rain = 0
KHO1 221822Z 13007KT 11/03 A299 RMK A01 T01060029  RH  059%=      5-min Rain = 0
KHO1 221823Z 13005KT 11/03 A299 RMK A01 T01050030  RH  060%=      5-min Rain = 0
KHO1 221824Z 13005KT 11/03 A299 RMK A01 T01090029  RH  058%=      5-min Rain = 0
KHO1 221825Z 11005KT 11/03 A299 RMK A01 T01100030  RH  058%=      5-min Rain = 0
KHO1 221826Z 10007KT 11/03 A299 RMK A01 T01140033  RH  057%=      5-min Rain = 0
KHO1 221827Z 12007KT 12/03 A299 RMK A01 T01180031  RH  055%=      5-min Rain = 0
KHO1 221828Z 14006KT 12/03 A299 RMK A01 T01170025  RH  053%=      5-min Rain = 0
KHO1 221829Z 13007KT 12/03 A299 RMK A01 T01150027  RH  055%=      5-min Rain = 0
KHO1 221830Z 14008KT 12/02 A299 RMK A01 T01150024  RH  053%=      5-min Rain = 0
KHO1 221831Z 14008KT 11/02 A299 RMK A01 T01120020  RH  053%=      5-min Rain = 0
KHO1 221832Z 13006KT 11/02 A299 RMK A01 T01130023  RH  054%=      5-min Rain = 0
KHO1 221833Z 11007KT 12/03 A299 RMK A01 T01150025  RH  054%=      5-min Rain = 0
KHO1 221834Z 11008KT 12/03 A299 RMK A01 T01200028  RH  053%=      5-min Rain = 0
KHO1 221835Z 11006KT 12/03 A299 RMK A01 T01220028  RH  053%=      5-min Rain = 0
KHO1 221836Z 11005KT 13/03 A299 RMK A01 T01250027  RH  051%=      5-min Rain = 0
KHO1 221837Z 11004KT 13/02 A299 RMK A01 T01250022  RH  050%=      5-min Rain = 0
KHO1 221838Z 11006KT 13/03 A299 RMK A01 T01250025  RH  051%=      5-min Rain = 0
KHO1 221839Z 12006KT 13/02 A2989 RMK A01 T01250018  RH  048%=      5-min Rain = 0
KHO1 221840Z 12006KT 12/02 A2989 RMK A01 T01240019  RH  049%=      5-min Rain = 0
KHO1 221841Z 12006KT 13/02 A2989 RMK A01 T01250019  RH  048%=      5-min Rain = 0
KHO1 221842Z 12005KT 13/02 A2989 RMK A01 T01250020  RH  049%=      5-min Rain = 0
KHO1 221843Z 12004KT 13/02 A2989 RMK A01 T01260023  RH  050%=      5-min Rain = 0
KHO1 221844Z 14005KT 13/02 A2989 RMK A01 T01290020  RH  047%=      5-min Rain = 0
KHO1 221845Z 13007KT 13/02 A2989 RMK A01 T01270018  RH  047%=      5-min Rain = 0
KHO1 221846Z 13007KT 12/02 A2989 RMK A01 T01240015  RH  047%=      5-min Rain = 0
KHO1 221847Z 12008KT 13/02 A2989 RMK A01 T01260019  RH  048%=      5-min Rain = 0
KHO1 221848Z 12005KT 13/02 A2989 RMK A01 T01260019  RH  048%=      5-min Rain = 0
KHO1 221849Z 12006KT 13/02 A2989 RMK A01 T01270020  RH  048%=      5-min Rain = 0
KHO1 221850Z 12004KT 13/02 A2989 RMK A01 T01290016  RH  046%=      5-min Rain = 0
KHO1 221851Z 12006KT 13/02 A2988 RMK A01 T01290015  RH  046%=      5-min Rain = 0
KHO1 221852Z 11005KT 13/02 A2988 RMK A01 T01280017  RH  047%=      5-min Rain = 0
KHO1 221853Z 11005KT 13/02 A2988 RMK A01 T01290019  RH  047%=      5-min Rain = 0
KHO1 221854Z 11008KT 13/02 A2988 RMK A01 T01320018  RH  046%=      5-min Rain = 0
KHO1 221855Z 11005KT 14/02 A2988 RMK A01 T01370018  RH  044%=      5-min Rain = 0
KHO1 221856Z 10005KT 14/02 A2988 RMK A01 T01410020  RH  044%=      5-min Rain = 0
KHO1 221857Z 11006KT 14/02 A2988 RMK A01 T01440017  RH  042%=      5-min Rain = 0
KHO1 221858Z 11007KT 15/01 A2988 RMK A01 T01470014  RH  040%=      5-min Rain = 0
KHO1 221859Z 12006KT 15/01 A2988 RMK A01 T01470012  RH  040%=      5-min Rain = 0
KHO1 221900Z 13006KT 14/01 A2988 RMK A01 T01440006  RH  039%=      5-min Rain = 0
KHO1 221901Z 10005KT 14/01 A2988 RMK A01 T01400009  RH  041%=      5-min Rain = 0
KHO1 221902Z 11005KT 14/01 A2988 RMK A01 T01430006  RH  039%=      5-min Rain = 0
KHO1 221903Z 11005KT 14/00 A2988 RMK A01 T01420002  RH  039%=      5-min Rain = 0
KHO1 221904Z 12006KT 14/00 A2988 RMK A01 T01410001  RH  038%=      5-min Rain = 0
KHO1 221905Z 10006KT 14/01 A2988 RMK A01 T01410007  RH  040%=      5-min Rain = 0
KHO1 221906Z 11006KT 14/01 A2987 RMK A01 T01440011  RH  040%=      5-min Rain = 0
KHO1 221907Z 14005KT 15/01 A2987 RMK A01 T01460005  RH  038%=      5-min Rain = 0
KHO1 221908Z 12006KT 15/M00 A2987 RMK A01 T01461001  RH  036%=      5-min Rain = 0
KHO1 221909Z 12006KT 15/M00 A2987 RMK A01 T01461001  RH  036%=      5-min Rain = 0
KHO1 221910Z 12006KT 15/M00 A2987 RMK A01 T01461002  RH  036%=      5-min Rain = 0
KHO1 221911Z 11007KT 14/M00 A2987 RMK A01 T01411001  RH  038%=      5-min Rain = 0
KHO1 221912Z 14006KT 14/00 A2987 RMK A01 T01410002  RH  039%=      5-min Rain = 0
KHO1 221913Z 13005KT 14/01 A2987 RMK A01 T01420007  RH  040%=      5-min Rain = 0
KHO1 221914Z 11005KT 14/01 A2987 RMK A01 T01440011  RH  040%=      5-min Rain = 0
KHO1 221915Z 11007KT 15/01 A2987 RMK A01 T01460010  RH  040%=      5-min Rain = 0
KHO1 221916Z 10009KT 15/01 A2987 RMK A01 T01500008  RH  038%=      5-min Rain = 0
KHO1 221917Z 12010KT 15/M00 A2987 RMK A01 T01511001  RH  035%=      5-min Rain = 0
KHO1 221918Z 12009KT 15/M00 A2987 RMK A01 T01491003  RH  035%=      5-min Rain = 0
KHO1 221919Z 15007KT 15/M00 A2986 RMK A01 T01491003  RH  035%=      5-min Rain = 0
KHO1 221920Z 14004KT 15/M00 A2986 RMK A01 T01481004  RH  035%=      5-min Rain = 0
KHO1 221921Z 13005KT 15/M00 A2986 RMK A01 T01481002  RH  036%=      5-min Rain = 0
KHO1 221922Z 16008KT 15/M02 A2986 RMK A01 T01471015  RH  033%=      5-min Rain = 0
KHO1 221923Z 16006KT 14/M02 A2986 RMK A01 T01431018  RH  033%=      5-min Rain = 0
KHO1 221924Z 15006KT 14/M02 A2986 RMK A01 T01431016  RH  034%=      5-min Rain = 0
KHO1 221925Z 14007G12KT 14/M01 A2986 RMK A01 T01421014  RH  034%=      5-min Rain = 0
KHO1 221926Z 13008KT 14/M01 A2986 RMK A01 T01441010  RH  035%=      5-min Rain = 0
KHO1 221927Z 14007KT 15/M01 A2986 RMK A01 T01461007  RH  035%=      5-min Rain = 0
KHO1 221928Z 15007KT 15/M01 A2986 RMK A01 T01461006  RH  035%=      5-min Rain = 0
KHO1 221929Z 17006KT 15/M00 A2986 RMK A01 T01451002  RH  036%=      5-min Rain = 0
KHO1 221930Z 12009KT 15/00 A2986 RMK A01 T01470000  RH  037%=      5-min Rain = 0
KHO1 221931Z 12006KT 15/M00 A2986 RMK A01 T01511001  RH  035%=      5-min Rain = 0
KHO1 221932Z 12008KT 16/M01 A2986 RMK A01 T01551007  RH  033%=      5-min Rain = 0
KHO1 221933Z 14009KT 16/M01 A2986 RMK A01 T01551009  RH  032%=      5-min Rain = 0
KHO1 221934Z 11008KT 15/M01 A2985 RMK A01 T01521010  RH  033%=      5-min Rain = 0
KHO1 221935Z 12006KT 16/M01 A2985 RMK A01 T01551010  RH  032%=      5-min Rain = 0
KHO1 221936Z 15005KT 15/M01 A2985 RMK A01 T01501013  RH  033%=      5-min Rain = 0
KHO1 221937Z 17005KT 15/M01 A2985 RMK A01 T01481011  RH  033%=      5-min Rain = 0
KHO1 221938Z 16008KT 15/M01 A2985 RMK A01 T01491014  RH  033%=      5-min Rain = 0
KHO1 221939Z 16009KT 15/M02 A2985 RMK A01 T01471018  RH  032%=      5-min Rain = 0
KHO1 221940Z 15006KT 15/M01 A2985 RMK A01 T01491011  RH  033%=      5-min Rain = 0
KHO1 221941Z 16009KT 15/M02 A2985 RMK A01 T01511019  RH  031%=      5-min Rain = 0
KHO1 221942Z 16009KT 15/M02 A2985 RMK A01 T01481021  RH  031%=      5-min Rain = 0
KHO1 221943Z 16007KT 15/M02 A2985 RMK A01 T01491017  RH  032%=      5-min Rain = 0
KHO1 221944Z 13008KT 15/M02 A2984 RMK A01 T01511019  RH  031%=      5-min Rain = 0
KHO1 221945Z 13009KT 15/M02 A2984 RMK A01 T01531020  RH  030%=      5-min Rain = 0
KHO1 221946Z 15011KT 16/M02 A2984 RMK A01 T01561021  RH  030%=      5-min Rain = 0
KHO1 221947Z 17010KT 16/M02 A2984 RMK A01 T01561019  RH  030%=      5-min Rain = 0
KHO1 221948Z 17009KT 15/M02 A2984 RMK A01 T01541019  RH  030%=      5-min Rain = 0
KHO1 221949Z 17010KT 15/M02 A2984 RMK A01 T01511018  RH  031%=      5-min Rain = 0
KHO1 221950Z 15010KT 15/M02 A2984 RMK A01 T01521019  RH  031%=      5-min Rain = 0
KHO1 221951Z 14009KT 15/M02 A2984 RMK A01 T01511021  RH  031%=      5-min Rain = 0
KHO1 221952Z 14007KT 15/M02 A2984 RMK A01 T01501023  RH  030%=      5-min Rain = 0
KHO1 221953Z 17004KT 15/M02 A2984 RMK A01 T01521020  RH  031%=      5-min Rain = 0
KHO1 221954Z 18007KT 16/M02 A2984 RMK A01 T01571022  RH  029%=      5-min Rain = 0
KHO1 221955Z 19005KT 16/M03 A2983 RMK A01 T01561026  RH  028%=      5-min Rain = 0
KHO1 221956Z 16008G13KT 16/M02 A2983 RMK A01 T01551023  RH  029%=      5-min Rain = 0
KHO1 221957Z 14011KT 16/M03 A2983 RMK A01 T01581026  RH  028%=      5-min Rain = 0
KHO1 221958Z 15008KT 16/M03 A2983 RMK A01 T01561028  RH  028%=      5-min Rain = 0
KHO1 221959Z 14009KT 16/M03 A2983 RMK A01 T01581025  RH  028%=      5-min Rain = 0
KHO1 222000Z 14009KT 16/M03 A2983 RMK A01 T01591027  RH  028%=      5-min Rain = 0
KHO1 222001Z 14013KT 16/M03 A2983 RMK A01 T01611028  RH  027%=      5-min Rain = 0
KHO1 222002Z 16013KT 16/M03 A2983 RMK A01 T01611034  RH  026%=      5-min Rain = 0
KHO1 222003Z 17009KT 16/M03 A2983 RMK A01 T01591033  RH  026%=      5-min Rain = 0
KHO1 222004Z 17010KT 16/M03 A2983 RMK A01 T01591031  RH  027%=      5-min Rain = 0
KHO1 222005Z 19006KT 16/M03 A2983 RMK A01 T01581031  RH  027%=      5-min Rain = 0
KHO1 222006Z 18008KT 16/M03 A2982 RMK A01 T01591029  RH  027%=      5-min Rain = 0
KHO1 222007Z 19007KT 16/M03 A2982 RMK A01 T01601030  RH  027%=      5-min Rain = 0
KHO1 222008Z 20006KT 16/M03 A2982 RMK A01 T01591034  RH  026%=      5-min Rain = 0
KHO1 222009Z 18007KT 16/M04 A2982 RMK A01 T01591037  RH  026%=      5-min Rain = 0
KHO1 222010Z 17010KT 16/M05 A2982 RMK A01 T01601047  RH  024%=      5-min Rain = 0
KHO1 222011Z 16011KT 16/M05 A2982 RMK A01 T01601046  RH  024%=      5-min Rain = 0
KHO1 222012Z 18012KT 16/M04 A2982 RMK A01 T01631044  RH  024%=      5-min Rain = 0
KHO1 222013Z 17012KT 16/M05 A2982 RMK A01 T01641046  RH  023%=      5-min Rain = 0
KHO1 222014Z 17008G13KT 17/M05 A2982 RMK A01 T01651049  RH  023%=      5-min Rain = 0
KHO1 222015Z 16007KT 16/M05 A2982 RMK A01 T01631049  RH  023%=      5-min Rain = 0
KHO1 222016Z 16010KT 16/M05 A2981 RMK A01 T01641050  RH  023%=      5-min Rain = 0
KHO1 222017Z 16010G15KT 17/M05 A2982 RMK A01 T01651052  RH  022%=      5-min Rain = 0
KHO1 222018Z 16016KT 17/M05 A2982 RMK A01 T01661052  RH  022%=      5-min Rain = 0
KHO1 222019Z 15014KT 17/M05 A2981 RMK A01 T01661052  RH  022%=      5-min Rain = 0
KHO1 222020Z 15013KT 17/M06 A2981 RMK A01 T01681057  RH  021%=      5-min Rain = 0
KHO1 222021Z 16015KT 17/M06 A2981 RMK A01 T01691063  RH  020%=      5-min Rain = 0
KHO1 222022Z 17013KT 17/M07 A2981 RMK A01 T01691066  RH  019%=      5-min Rain = 0
KHO1 222023Z 17009KT 17/M06 A2981 RMK A01 T01711061  RH  020%=      5-min Rain = 0
KHO1 222024Z 18010KT 17/M06 A2981 RMK A01 T01741062  RH  019%=      5-min Rain = 0
KHO1 222025Z 19011KT 18/M07 A2981 RMK A01 T01751065  RH  019%=      5-min Rain = 0
KHO1 222026Z 20012KT 17/M07 A2981 RMK A01 T01731066  RH  019%=      5-min Rain = 0
KHO1 222027Z 19012G17KT 17/M06 A2981 RMK A01 T01731064  RH  019%=      5-min Rain = 0
KHO1 222028Z 16013KT 18/M07 A2981 RMK A01 T01751066  RH  019%=      5-min Rain = 0
KHO1 222029Z 16014KT 18/M07 A2981 RMK A01 T01751070  RH  018%=      5-min Rain = 0
KHO1 222030Z 17014KT 17/M07 A2981 RMK A01 T01711072  RH  018%=      5-min Rain = 0
KHO1 222031Z 18013KT 17/M07 A2981 RMK A01 T01701072  RH  018%=      5-min Rain = 0
KHO1 222032Z 18012KT 17/M07 A2981 RMK A01 T01701068  RH  019%=      5-min Rain = 0
KHO1 222033Z 18011KT 17/M07 A2981 RMK A01 T01701070  RH  019%=      5-min Rain = 0
KHO1 222034Z 17012KT 17/M07 A2981 RMK A01 T01711068  RH  019%=      5-min Rain = 0
KHO1 222035Z 18014KT 17/M07 A298 RMK A01 T01711070  RH  019%=      5-min Rain = 0
KHO1 222036Z 20008KT 17/M07 A298 RMK A01 T01681071  RH  019%=      5-min Rain = 0
KHO1 222037Z 20007KT 17/M07 A298 RMK A01 T01711066  RH  019%=      5-min Rain = 0
KHO1 222038Z 18009KT 17/M06 A298 RMK A01 T01741064  RH  019%=      5-min Rain = 0
KHO1 222039Z 18014KT 18/M07 A298 RMK A01 T01751066  RH  019%=      5-min Rain = 0
KHO1 222040Z 17014KT 17/M07 A298 RMK A01 T01721068  RH  019%=      5-min Rain = 0
KHO1 222041Z 17013KT 17/M07 A298 RMK A01 T01721066  RH  019%=      5-min Rain = 0
KHO1 222042Z 17014KT 17/M07 A298 RMK A01 T01721069  RH  019%=      5-min Rain = 0
KHO1 222043Z 17012KT 17/M07 A298 RMK A01 T01691068  RH  019%=      5-min Rain = 0
KHO1 222044Z 17012KT 17/M07 A298 RMK A01 T01691067  RH  019%=      5-min Rain = 0
KHO1 222045Z 18011KT 17/M07 A298 RMK A01 T01691066  RH  019%=      5-min Rain = 0
KHO1 222046Z 17012KT 17/M06 A298 RMK A01 T01701062  RH  020%=      5-min Rain = 0
KHO1 222047Z 16013KT 17/M06 A298 RMK A01 T01711062  RH  020%=      5-min Rain = 0
KHO1 222048Z 16011KT 17/M06 A298 RMK A01 T01721059  RH  020%=      5-min Rain = 0
KHO1 222049Z 16012KT 17/M06 A298 RMK A01 T01731060  RH  020%=      5-min Rain = 0
KHO1 222050Z 16015KT 17/M06 A298 RMK A01 T01741059  RH  020%=      5-min Rain = 0
KHO1 222051Z 16013KT 18/M06 A298 RMK A01 T01751058  RH  020%=      5-min Rain = 0
KHO1 222052Z 15013KT 18/M06 A298 RMK A01 T01751059  RH  020%=      5-min Rain = 0
KHO1 222053Z 16012KT 18/M06 A298 RMK A01 T01761057  RH  020%=      5-min Rain = 0
KHO1 222054Z 16015KT 18/M06 A298 RMK A01 T01761059  RH  019%=      5-min Rain = 0
KHO1 222055Z 15013KT 17/M06 A298 RMK A01 T01741057  RH  020%=      5-min Rain = 0
KHO1 222056Z 14011KT 17/M06 A298 RMK A01 T01731058  RH  020%=      5-min Rain = 0
KHO1 222057Z 15011KT 17/M06 A2979 RMK A01 T01711057  RH  020%=      5-min Rain = 0
KHO1 222058Z 15010KT 17/M06 A2979 RMK A01 T01731055  RH  021%=      5-min Rain = 0
KHO1 222059Z 14013G18KT 17/M06 A2979 RMK A01 T01741055  RH  020%=      5-min Rain = 0
KHO1 222100Z 18015G20KT 18/M06 A2979 RMK A01 T01791058  RH  019%=      5-min Rain = 0
KHO1 222101Z 18012KT 18/M06 A2979 RMK A01 T01801062  RH  019%=      5-min Rain = 0
KHO1 222102Z 18011KT 18/M06 A2979 RMK A01 T01791063  RH  019%=      5-min Rain = 0
KHO1 222103Z 19010KT 18/M06 A2979 RMK A01 T01791062  RH  019%=      5-min Rain = 0
KHO1 222104Z 18008KT 18/M06 A2979 RMK A01 T01811060  RH  019%=      5-min Rain = 0
KHO1 222105Z 17009KT 18/M06 A2979 RMK A01 T01821060  RH  019%=      5-min Rain = 0
KHO1 222106Z 17011KT 18/M06 A2979 RMK A01 T01831060  RH  019%=      5-min Rain = 0
KHO1 222107Z 19011KT 18/M06 A2979 RMK A01 T01831061  RH  018%=      5-min Rain = 0
KHO1 222108Z 20011KT 19/M07 A2979 RMK A01 T01851065  RH  018%=      5-min Rain = 0
KHO1 222109Z 19013KT 18/M07 A2979 RMK A01 T01841070  RH  017%=      5-min Rain = 0
KHO1 222110Z 20012KT 18/M08 A2979 RMK A01 T01801076  RH  017%=      5-min Rain = 0
KHO1 222111Z 19010KT 18/M07 A2979 RMK A01 T01781073  RH  017%=      5-min Rain = 0
KHO1 222112Z 20011KT 18/M07 A2979 RMK A01 T01781070  RH  018%=      5-min Rain = 0
KHO1 222113Z 21010KT 18/M07 A2979 RMK A01 T01801067  RH  018%=      5-min Rain = 0
KHO1 222114Z 20009KT 18/M07 A2979 RMK A01 T01791069  RH  018%=      5-min Rain = 0
KHO1 222115Z 19012KT 18/M06 A2979 RMK A01 T01811063  RH  018%=      5-min Rain = 0
KHO1 222116Z 18011KT 18/M07 A2979 RMK A01 T01821066  RH  018%=      5-min Rain = 0
KHO1 222117Z 18008KT 18/M06 A2979 RMK A01 T01801063  RH  018%=      5-min Rain = 0
KHO1 222118Z 18010KT 18/M06 A2979 RMK A01 T01821063  RH  018%=      5-min Rain = 0
KHO1 222119Z 19013G18KT 18/M06 A2979 RMK A01 T01811064  RH  018%=      5-min Rain = 0
KHO1 222120Z 19014G19KT 18/M07 A2979 RMK A01 T01801071  RH  017%=      5-min Rain = 0
KHO1 222121Z 19010KT 18/M07 A2979 RMK A01 T01791069  RH  018%=      5-min Rain = 0
KHO1 222122Z 20011KT 18/M07 A2979 RMK A01 T01801070  RH  018%=      5-min Rain = 0
KHO1 222123Z 20011KT 18/M07 A2979 RMK A01 T01801069  RH  018%=      5-min Rain = 0
KHO1 222124Z 19012KT 18/M07 A2979 RMK A01 T01801067  RH  018%=      5-min Rain = 0
KHO1 222125Z 21013KT 18/M07 A2979 RMK A01 T01811068  RH  018%=      5-min Rain = 0
KHO1 222126Z 18011KT 18/M06 A2979 RMK A01 T01841064  RH  018%=      5-min Rain = 0
KHO1 222127Z 17015KT 19/M07 A2979 RMK A01 T01851065  RH  018%=      5-min Rain = 0
KHO1 222128Z 18014KT 18/M06 A2979 RMK A01 T01821063  RH  018%=      5-min Rain = 0
KHO1 222129Z 18012KT 18/M07 A2979 RMK A01 T01811067  RH  018%=      5-min Rain = 0
KHO1 222130Z 20011KT 18/M07 A2979 RMK A01 T01801066  RH  018%=      5-min Rain = 0
KHO1 222131Z 21012KT 18/M07 A2979 RMK A01 T01801066  RH  018%=      5-min Rain = 0
KHO1 222132Z 20011KT 18/M07 A2979 RMK A01 T01801066  RH  018%=      5-min Rain = 0
KHO1 222133Z 20011KT 18/M07 A2979 RMK A01 T01811066  RH  018%=      5-min Rain = 0
KHO1 222134Z 18013KT 18/M07 A2979 RMK A01 T01811065  RH  018%=      5-min Rain = 0
KHO1 222135Z 17013KT 18/M06 A2979 RMK A01 T01821064  RH  018%=      5-min Rain = 0
KHO1 222136Z 18014KT 18/M07 A2979 RMK A01 T01821066  RH  018%=      5-min Rain = 0
KHO1 222137Z 17015KT 18/M06 A2979 RMK A01 T01811063  RH  018%=      5-min Rain = 0
KHO1 222138Z 18012KT 18/M06 A2979 RMK A01 T01801062  RH  019%=      5-min Rain = 0
KHO1 222139Z 18012KT 18/M06 A2979 RMK A01 T01801061  RH  019%=      5-min Rain = 0
KHO1 222140Z 18011KT 18/M06 A2979 RMK A01 T01791061  RH  019%=      5-min Rain = 0
KHO1 222141Z 18009KT 18/M06 A2979 RMK A01 T01801057  RH  019%=      5-min Rain = 0
KHO1 222142Z 19011KT 18/M06 A2979 RMK A01 T01831056  RH  019%=      5-min Rain = 0
KHO1 222143Z 18012KT 18/M06 A2979 RMK A01 T01841059  RH  019%=      5-min Rain = 0
KHO1 222144Z 18016KT 18/M06 A2978 RMK A01 T01841061  RH  018%=      5-min Rain = 0
KHO1 222145Z 19014KT 18/M07 A2978 RMK A01 T01821065  RH  018%=      5-min Rain = 0
KHO1 222146Z 18010KT 18/M07 A2978 RMK A01 T01811067  RH  018%=      5-min Rain = 0
KHO1 222147Z 18010KT 18/M07 A2978 RMK A01 T01831066  RH  018%=      5-min Rain = 0
KHO1 222148Z 19010KT 18/M07 A2978 RMK A01 T01831068  RH  017%=      5-min Rain = 0
KHO1 222149Z 18008KT 18/M07 A2978 RMK A01 T01801071  RH  017%=      5-min Rain = 0
KHO1 222150Z 18009KT 18/M07 A2978 RMK A01 T01801068  RH  018%=      5-min Rain = 0
KHO1 222151Z 18014G19KT 18/M08 A2978 RMK A01 T01821075  RH  017%=      5-min Rain = 0
KHO1 222152Z 16014KT 19/M08 A2978 RMK A01 T01851077  RH  016%=      5-min Rain = 0
KHO1 222153Z 16019G24KT 18/M09 A2978 RMK A01 T01841087  RH  015%=      5-min Rain = 0
KHO1 222154Z 16016KT 18/M09 A2978 RMK A01 T01841088  RH  015%=      5-min Rain = 0
KHO1 222155Z 16015KT 19/M08 A2978 RMK A01 T01851082  RH  016%=      5-min Rain = 0
KHO1 222156Z 17015KT 19/M09 A2978 RMK A01 T01871085  RH  015%=      5-min Rain = 0
KHO1 222157Z 17016G22KT 19/M09 A2978 RMK A01 T01861086  RH  015%=      5-min Rain = 0
KHO1 222158Z 17013KT 19/M09 A2978 RMK A01 T01851086  RH  015%=      5-min Rain = 0
KHO1 222159Z 17015KT 18/M09 A2978 RMK A01 T01831088  RH  015%=      5-min Rain = 0
KHO1 222200Z 16016KT 18/M09 A2977 RMK A01 T01841087  RH  015%=      5-min Rain = 0
KHO1 222201Z 16017KT 18/M09 A2977 RMK A01 T01831089  RH  015%=      5-min Rain = 0
KHO1 222202Z 17016KT 18/M09 A2977 RMK A01 T01831088  RH  015%=      5-min Rain = 0
KHO1 222203Z 18016KT 18/M09 A2977 RMK A01 T01821089  RH  015%=      5-min Rain = 0
KHO1 222204Z 17015KT 18/M09 A2977 RMK A01 T01831087  RH  015%=      5-min Rain = 0
KHO1 222205Z 16018KT 18/M09 A2977 RMK A01 T01831092  RH  015%=      5-min Rain = 0
KHO1 222206Z 17019KT 18/M09 A2977 RMK A01 T01831093  RH  014%=      5-min Rain = 0
KHO1 222207Z 16016KT 18/M09 A2977 RMK A01 T01821094  RH  014%=      5-min Rain = 0
KHO1 222208Z 17013KT 18/M09 A2977 RMK A01 T01811093  RH  015%=      5-min Rain = 0
KHO1 222209Z 18011KT 18/M09 A2977 RMK A01 T01821091  RH  015%=      5-min Rain = 0
KHO1 222210Z 19010KT 18/M09 A2977 RMK A01 T01831090  RH  015%=      5-min Rain = 0
KHO1 222211Z 20013KT 19/M09 A2977 RMK A01 T01851093  RH  014%=      5-min Rain = 0
KHO1 222212Z 18010KT 19/M09 A2977 RMK A01 T01881088  RH  015%=      5-min Rain = 0
KHO1 222213Z 18014KT 19/M09 A2977 RMK A01 T01891090  RH  014%=      5-min Rain = 0
KHO1 222214Z 19014KT 19/M09 A2977 RMK A01 T01871090  RH  014%=      5-min Rain = 0
KHO1 222215Z 19013KT 19/M09 A2977 RMK A01 T01871089  RH  014%=      5-min Rain = 0
KHO1 222216Z 19012KT 19/M09 A2977 RMK A01 T01861092  RH  014%=      5-min Rain = 0
KHO1 222217Z 18011KT 19/M09 A2977 RMK A01 T01851091  RH  014%=      5-min Rain = 0
KHO1 222218Z 18013KT 19/M09 A2977 RMK A01 T01861092  RH  014%=      5-min Rain = 0
KHO1 222219Z 16013KT 19/M09 A2976 RMK A01 T01851092  RH  014%=      5-min Rain = 0
KHO1 222220Z 18012KT 19/M09 A2976 RMK A01 T01871092  RH  014%=      5-min Rain = 0
KHO1 222221Z 20009KT 19/M09 A2976 RMK A01 T01861091  RH  014%=      5-min Rain = 0
KHO1 222222Z 21010KT 19/M09 A2976 RMK A01 T01861092  RH  014%=      5-min Rain = 0
KHO1 222223Z 20011KT 19/M09 A2976 RMK A01 T01861092  RH  014%=      5-min Rain = 0
KHO1 222224Z 19012KT 19/M09 A2976 RMK A01 T01861092  RH  014%=      5-min Rain = 0
KHO1 222225Z 19013KT 19/M09 A2976 RMK A01 T01861091  RH  014%=      5-min Rain = 0
KHO1 222226Z 18011KT 19/M09 A2976 RMK A01 T01881091  RH  014%=      5-min Rain = 0
KHO1 222227Z 18011KT 19/M09 A2976 RMK A01 T01861094  RH  014%=      5-min Rain = 0
KHO1 222228Z 17011KT 19/M09 A2976 RMK A01 T01861091  RH  014%=      5-min Rain = 0
KHO1 222229Z 17009KT 19/M09 A2976 RMK A01 T01861093  RH  014%=      5-min Rain = 0
KHO1 222230Z 17009KT 19/M09 A2976 RMK A01 T01861092  RH  014%=      5-min Rain = 0
KHO1 222231Z 18011KT 19/M09 A2976 RMK A01 T01861091  RH  014%=      5-min Rain = 0
KHO1 222232Z 17010KT 19/M10 A2976 RMK A01 T01861095  RH  014%=      5-min Rain = 0
KHO1 222233Z 19010KT 19/M09 A2976 RMK A01 T01851093  RH  014%=      5-min Rain = 0
KHO1 222234Z 19013KT 19/M09 A2976 RMK A01 T01851094  RH  014%=      5-min Rain = 0
KHO1 222235Z 17010KT 18/M09 A2976 RMK A01 T01841094  RH  014%=      5-min Rain = 0
KHO1 222236Z 18009KT 19/M09 A2976 RMK A01 T01851091  RH  014%=      5-min Rain = 0
KHO1 222237Z 18010KT 19/M09 A2976 RMK A01 T01871092  RH  014%=      5-min Rain = 0
KHO1 222238Z 17011KT 19/M10 A2976 RMK A01 T01861095  RH  014%=      5-min Rain = 0
KHO1 222239Z 18009KT 19/M09 A2976 RMK A01 T01851093  RH  014%=      5-min Rain = 0
KHO1 222240Z 17012KT 19/M09 A2976 RMK A01 T01871094  RH  014%=      5-min Rain = 0
KHO1 222241Z 18010KT 19/M10 A2976 RMK A01 T01861097  RH  014%=      5-min Rain = 0
KHO1 222242Z 18012KT 19/M10 A2976 RMK A01 T01871095  RH  014%=      5-min Rain = 0
KHO1 222243Z 18012KT 19/M10 A2976 RMK A01 T01861095  RH  014%=      5-min Rain = 0
KHO1 222244Z 18010KT 19/M09 A2976 RMK A01 T01861094  RH  014%=      5-min Rain = 0
KHO1 222245Z 17011KT 19/M09 A2976 RMK A01 T01871094  RH  014%=      5-min Rain = 0
KHO1 222246Z 16010KT 19/M09 A2976 RMK A01 T01891092  RH  014%=      5-min Rain = 0
KHO1 222247Z 17010KT 19/M09 A2976 RMK A01 T01881094  RH  014%=      5-min Rain = 0
KHO1 222248Z 16011KT 19/M10 A2976 RMK A01 T01861095  RH  014%=      5-min Rain = 0
KHO1 222249Z 15011KT 19/M09 A2976 RMK A01 T01871094  RH  014%=      5-min Rain = 0
KHO1 222250Z 16009KT 19/M10 A2976 RMK A01 T01861095  RH  014%=      5-min Rain = 0
KHO1 222251Z 16011KT 19/M09 A2976 RMK A01 T01871093  RH  014%=      5-min Rain = 0
KHO1 222252Z 16012KT 19/M09 A2976 RMK A01 T01891092  RH  014%=      5-min Rain = 0
KHO1 222253Z 17014KT 19/M10 A2976 RMK A01 T01891095  RH  014%=      5-min Rain = 0
KHO1 222254Z 18012KT 19/M10 A2976 RMK A01 T01881095  RH  014%=      5-min Rain = 0
KHO1 222255Z 18010KT 19/M10 A2976 RMK A01 T01871097  RH  014%=      5-min Rain = 0
KHO1 222256Z 18009KT 19/M10 A2976 RMK A01 T01861097  RH  014%=      5-min Rain = 0
KHO1 222257Z 16012KT 19/M10 A2976 RMK A01 T01861096  RH  014%=      5-min Rain = 0
KHO1 222258Z 16013KT 19/M10 A2976 RMK A01 T01851095  RH  014%=      5-min Rain = 0
KHO1 222259Z 17010KT 19/M10 A2976 RMK A01 T01851096  RH  014%=      5-min Rain = 0
KHO1 222300Z 18011KT 18/M10 A2975 RMK A01 T01841096  RH  014%=      5-min Rain = 0
KHO1 222301Z 17014KT 19/M09 A2975 RMK A01 T01851094  RH  014%=      5-min Rain = 0
KHO1 222302Z 18013KT 19/M10 A2975 RMK A01 T01861095  RH  014%=      5-min Rain = 0
KHO1 222303Z 18010KT 19/M10 A2975 RMK A01 T01861095  RH  014%=      5-min Rain = 0
KHO1 222304Z 18012KT 19/M10 A2975 RMK A01 T01871095  RH  014%=      5-min Rain = 0
KHO1 222305Z 18011KT 19/M10 A2975 RMK A01 T01861096  RH  014%=      5-min Rain = 0
KHO1 222306Z 17010KT 19/M10 A2975 RMK A01 T01851095  RH  014%=      5-min Rain = 0
KHO1 222307Z 16012KT 19/M09 A2975 RMK A01 T01861094  RH  014%=      5-min Rain = 0
KHO1 222308Z 16015KT 19/M09 A2975 RMK A01 T01861094  RH  014%=      5-min Rain = 0
KHO1 222309Z 16013KT 19/M10 A2975 RMK A01 T01851096  RH  014%=      5-min Rain = 0
KHO1 222310Z 17010KT 18/M10 A2975 RMK A01 T01841098  RH  014%=      5-min Rain = 0
KHO1 222311Z 15011KT 18/M10 A2975 RMK A01 T01841096  RH  014%=      5-min Rain = 0
KHO1 222312Z 15014KT 19/M10 A2975 RMK A01 T01851097  RH  014%=      5-min Rain = 0
KHO1 222313Z 15011KT 19/M10 A2975 RMK A01 T01861095  RH  014%=      5-min Rain = 0
KHO1 222314Z 17013KT 19/M10 A2975 RMK A01 T01861097  RH  014%=      5-min Rain = 0
KHO1 222315Z 17012KT 19/M10 A2975 RMK A01 T01851097  RH  014%=      5-min Rain = 0
KHO1 222316Z 17013KT 19/M10 A2975 RMK A01 T01851097  RH  014%=      5-min Rain = 0
KHO1 222317Z 18012KT 19/M10 A2975 RMK A01 T01851098  RH  014%=      5-min Rain = 0
KHO1 222318Z 18012KT 18/M10 A2975 RMK A01 T01841097  RH  014%=      5-min Rain = 0
KHO1 222319Z 18011KT 18/M10 A2974 RMK A01 T01841097  RH  014%=      5-min Rain = 0
KHO1 222320Z 18012KT 19/M10 A2974 RMK A01 T01851096  RH  014%=      5-min Rain = 0
KHO1 222321Z 18012KT 19/M10 A2974 RMK A01 T01851097  RH  014%=      5-min Rain = 0
KHO1 222322Z 18011KT 19/M10 A2974 RMK A01 T01851098  RH  014%=      5-min Rain = 0
KHO1 222323Z 18011KT 19/M10 A2974 RMK A01 T01851098  RH  014%=      5-min Rain = 0
KHO1 222324Z 18011KT 18/M10 A2974 RMK A01 T01841099  RH  014%=      5-min Rain = 0
KHO1 222325Z 17009KT 18/M10 A2974 RMK A01 T01841098  RH  014%=      5-min Rain = 0
KHO1 222326Z 17012KT 19/M10 A2974 RMK A01 T01851098  RH  014%=      5-min Rain = 0
KHO1 222327Z 18011KT 18/M10 A2974 RMK A01 T01841099  RH  014%=      5-min Rain = 0
KHO1 222328Z 18010KT 19/M10 A2974 RMK A01 T01851098  RH  014%=      5-min Rain = 0
KHO1 222329Z 19009KT 19/M10 A2974 RMK A01 T01851098  RH  014%=      5-min Rain = 0
KHO1 222330Z 18008KT 19/M10 A2974 RMK A01 T01851098  RH  014%=      5-min Rain = 0
KHO1 222331Z 18010KT 19/M10 A2974 RMK A01 T01851098  RH  014%=      5-min Rain = 0
KHO1 222332Z 17010KT 19/M10 A2974 RMK A01 T01851098  RH  014%=      5-min Rain = 0
KHO1 222333Z 17012KT 19/M10 A2974 RMK A01 T01851098  RH  014%=      5-min Rain = 0
KHO1 222334Z 17012KT 18/M10 A2974 RMK A01 T01841099  RH  014%=      5-min Rain = 0
KHO1 222335Z 17011KT 18/M10 A2974 RMK A01 T01841099  RH  014%=      5-min Rain = 0
KHO1 222336Z 18011KT 18/M10 A2974 RMK A01 T01841098  RH  014%=      5-min Rain = 0
KHO1 222337Z 18012KT 18/M10 A2974 RMK A01 T01841099  RH  014%=      5-min Rain = 0
KHO1 222338Z 18011KT 18/M10 A2974 RMK A01 T01841098  RH  014%=      5-min Rain = 0
KHO1 222339Z 18012KT 18/M10 A2974 RMK A01 T01841099  RH  014%=      5-min Rain = 0
KHO1 222340Z 18012KT 18/M10 A2974 RMK A01 T01841100  RH  014%=      5-min Rain = 0
KHO1 222341Z 18009KT 18/M10 A2974 RMK A01 T01831099  RH  014%=      5-min Rain = 0
KHO1 222342Z 19009KT 18/M10 A2973 RMK A01 T01831099  RH  014%=      5-min Rain = 0
KHO1 222343Z 18009KT 18/M10 A2973 RMK A01 T01831100  RH  014%=      5-min Rain = 0
KHO1 222344Z 18008KT 18/M10 A2973 RMK A01 T01831099  RH  014%=      5-min Rain = 0
KHO1 222345Z 17011KT 18/M10 A2973 RMK A01 T01841099  RH  014%=      5-min Rain = 0
KHO1 222346Z 17011KT 18/M10 A2973 RMK A01 T01831100  RH  014%=      5-min Rain = 0
KHO1 222347Z 17010KT 18/M10 A2973 RMK A01 T01831099  RH  014%=      5-min Rain = 0
KHO1 222348Z 17009KT 18/M10 A2973 RMK A01 T01831099  RH  014%=      5-min Rain = 0
KHO1 222349Z 17010KT 18/M10 A2973 RMK A01 T01831099  RH  014%=      5-min Rain = 0
KHO1 222350Z 16010KT 18/M10 A2973 RMK A01 T01831098  RH  014%=      5-min Rain = 0
KHO1 222351Z 16012KT 18/M10 A2973 RMK A01 T01821099  RH  014%=      5-min Rain = 0
KHO1 222352Z 17011KT 18/M10 A2973 RMK A01 T01821100  RH  014%=      5-min Rain = 0
KHO1 222353Z 17011KT 18/M10 A2973 RMK A01 T01821100  RH  014%=      5-min Rain = 0
KHO1 222354Z 17012KT 18/M10 A2973 RMK A01 T01821100  RH  014%=      5-min Rain = 0
KHO1 222355Z 17009KT 18/M10 A2973 RMK A01 T01811100  RH  014%=      5-min Rain = 0
KHO1 222356Z 17008KT 18/M10 A2973 RMK A01 T01811100  RH  014%=      5-min Rain = 0
KHO1 222357Z 18009KT 18/M10 A2973 RMK A01 T01811099  RH  014%=      5-min Rain = 0
KHO1 222358Z 17008KT 18/M10 A2973 RMK A01 T01801099  RH  014%=      5-min Rain = 0
KHO1 222359Z 17008KT 18/M10 A2973 RMK A01 T01791100  RH  014%=      5-min Rain = 0
KHO1 230000Z 17008KT 18/M10 A2973 RMK A01 T01781100  RH  014%=      5-min Rain = 0
KHO1 230001Z 17009KT 18/M10 A2973 RMK A01 T01781100  RH  014%=      5-min Rain = 0
KHO1 230002Z 17008KT 18/M10 A2973 RMK A01 T01771100  RH  014%=      5-min Rain = 0
KHO1 230003Z 17006KT 18/M10 A2973 RMK A01 T01761100  RH  014%=      5-min Rain = 0
KHO1 230004Z 16009KT 18/M10 A2973 RMK A01 T01751101  RH  014%=      5-min Rain = 0
KHO1 230005Z 16007KT 17/M10 A2972 RMK A01 T01741100  RH  014%=      5-min Rain = 0
KHO1 230006Z 16007KT 17/M10 A2972 RMK A01 T01731100  RH  014%=      5-min Rain = 0
KHO1 230007Z 16005KT 17/M10 A2972 RMK A01 T01711100  RH  015%=      5-min Rain = 0
KHO1 230008Z 16006KT 17/M10 A2972 RMK A01 T01701101  RH  015%=      5-min Rain = 0
KHO1 230009Z 15008KT 17/M10 A2972 RMK A01 T01691102  RH  015%=      5-min Rain = 0
KHO1 230010Z 15007KT 17/M10 A2972 RMK A01 T01691102  RH  015%=      5-min Rain = 0
KHO1 230011Z 15007KT 17/M10 A2972 RMK A01 T01691102  RH  015%=      5-min Rain = 0
KHO1 230012Z 15007KT 17/M10 A2972 RMK A01 T01691101  RH  015%=      5-min Rain = 0
KHO1 230013Z 16007KT 17/M10 A2972 RMK A01 T01691101  RH  015%=      5-min Rain = 0
KHO1 230014Z 15006KT 17/M10 A2972 RMK A01 T01691101  RH  015%=      5-min Rain = 0
KHO1 230015Z 16007KT 17/M10 A2972 RMK A01 T01691102  RH  015%=      5-min Rain = 0
KHO1 230016Z 15006KT 17/M10 A2972 RMK A01 T01681102  RH  015%=      5-min Rain = 0
KHO1 230017Z 15007KT 17/M10 A2972 RMK A01 T01681102  RH  015%=      5-min Rain = 0
KHO1 230018Z 16007KT 17/M10 A2972 RMK A01 T01691102  RH  015%=      5-min Rain = 0
KHO1 230019Z 15007KT 17/M10 A2971 RMK A01 T01681102  RH  015%=      5-min Rain = 0
KHO1 230020Z 16006KT 17/M10 A2971 RMK A01 T01671102  RH  015%=      5-min Rain = 0
KHO1 230021Z 16006KT 17/M10 A2971 RMK A01 T01651102  RH  015%=      5-min Rain = 0
KHO1 230022Z 16007KT 16/M10 A2971 RMK A01 T01641102  RH  015%=      5-min Rain = 0
KHO1 230023Z 16006KT 16/M10 A2971 RMK A01 T01641102  RH  015%=      5-min Rain = 0
KHO1 230024Z 15006KT 16/M10 A2971 RMK A01 T01631100  RH  015%=      5-min Rain = 0
KHO1 230025Z 15006KT 16/M10 A2971 RMK A01 T01621100  RH  016%=      5-min Rain = 0
KHO1 230026Z 15006KT 16/M10 A2971 RMK A01 T01621099  RH  016%=      5-min Rain = 0
KHO1 230027Z 15006KT 16/M10 A2971 RMK A01 T01611099  RH  016%=      5-min Rain = 0
KHO1 230028Z 15006KT 16/M10 A2971 RMK A01 T01601099  RH  016%=      5-min Rain = 0
KHO1 230029Z 14005KT 16/M10 A2971 RMK A01 T01601100  RH  016%=      5-min Rain = 0
KHO1 230030Z 14005KT 16/M10 A2971 RMK A01 T01591099  RH  016%=      5-min Rain = 0
KHO1 230031Z 14005KT 16/M10 A2971 RMK A01 T01581100  RH  016%=      5-min Rain = 0
KHO1 230032Z 15005KT 16/M10 A2971 RMK A01 T01571100  RH  016%=      5-min Rain = 0
KHO1 230033Z 15005KT 16/M10 A2971 RMK A01 T01561099  RH  016%=      5-min Rain = 0
KHO1 230034Z 14005KT 16/M10 A2971 RMK A01 T01561099  RH  016%=      5-min Rain = 0
KHO1 230035Z 14005KT 16/M10 A2971 RMK A01 T01551100  RH  016%=      5-min Rain = 0
KHO1 230036Z 14006KT 16/M10 A2971 RMK A01 T01551100  RH  016%=      5-min Rain = 0
KHO1 230037Z 14006KT 16/M10 A2971 RMK A01 T01551100  RH  016%=      5-min Rain = 0
KHO1 230038Z 14006KT 16/M10 A2971 RMK A01 T01551100  RH  016%=      5-min Rain = 0
KHO1 230039Z 14006KT 15/M10 A2971 RMK A01 T01541099  RH  016%=      5-min Rain = 0
KHO1 230040Z 14006KT 15/M10 A2971 RMK A01 T01541099  RH  016%=      5-min Rain = 0
KHO1 230041Z 13006KT 16/M10 A2971 RMK A01 T01551099  RH  016%=      5-min Rain = 0
KHO1 230042Z 13006KT 16/M10 A297 RMK A01 T01551099  RH  016%=      5-min Rain = 0
KHO1 230043Z 14006KT 16/M10 A297 RMK A01 T01551099  RH  016%=      5-min Rain = 0
KHO1 230044Z 14007KT 16/M10 A297 RMK A01 T01551099  RH  016%=      5-min Rain = 0
KHO1 230045Z 14007KT 16/M10 A297 RMK A01 T01551099  RH  016%=      5-min Rain = 0
KHO1 230046Z 14007KT 15/M10 A297 RMK A01 T01541098  RH  017%=      5-min Rain = 0
KHO1 230047Z 13006KT 15/M10 A297 RMK A01 T01531098  RH  017%=      5-min Rain = 0
KHO1 230048Z 13006KT 15/M10 A297 RMK A01 T01531098  RH  017%=      5-min Rain = 0
KHO1 230049Z 12006KT 15/M10 A297 RMK A01 T01531098  RH  017%=      5-min Rain = 0
KHO1 230050Z 12006KT 16/M10 A297 RMK A01 T01551097  RH  017%=      5-min Rain = 0
KHO1 230051Z 12006KT 16/M10 A297 RMK A01 T01561095  RH  017%=      5-min Rain = 0
KHO1 230052Z 12006KT 16/M09 A2969 RMK A01 T01561094  RH  017%=      5-min Rain = 0
KHO1 230053Z 12006KT 16/M09 A2969 RMK A01 T01561094  RH  017%=      5-min Rain = 0
KHO1 230054Z 12007KT 16/M09 A2969 RMK A01 T01561094  RH  017%=      5-min Rain = 0
KHO1 230055Z 12007KT 16/M10 A2969 RMK A01 T01571095  RH  017%=      5-min Rain = 0
KHO1 230056Z 11006KT 16/M09 A2969 RMK A01 T01581094  RH  017%=      5-min Rain = 0
KHO1 230057Z 11005KT 16/M09 A2969 RMK A01 T01581094  RH  017%=      5-min Rain = 0
KHO1 230058Z 11007KT 16/M09 A2969 RMK A01 T01571094  RH  017%=      5-min Rain = 0
KHO1 230059Z 12006KT 16/M09 A2969 RMK A01 T01571094  RH  017%=      5-min Rain = 0
KHO1 230100Z 12007KT 16/M09 A2969 RMK A01 T01571093  RH  017%=      5-min Rain = 0
KHO1 230101Z 12007KT 16/M09 A2969 RMK A01 T01581092  RH  017%=      5-min Rain = 0
KHO1 230102Z 12006KT 16/M09 A2969 RMK A01 T01591092  RH  017%=      5-min Rain = 0
KHO1 230103Z 11006KT 16/M09 A2969 RMK A01 T01581092  RH  017%=      5-min Rain = 0
KHO1 230104Z 11007KT 16/M09 A2969 RMK A01 T01581092  RH  017%=      5-min Rain = 0
KHO1 230105Z 11006KT 16/M09 A2969 RMK A01 T01581092  RH  017%=      5-min Rain = 0
KHO1 230106Z 11006KT 16/M09 A2969 RMK A01 T01571091  RH  017%=      5-min Rain = 0
KHO1 230107Z 11006KT 16/M09 A2969 RMK A01 T01561091  RH  017%=      5-min Rain = 0
KHO1 230108Z 11007KT 16/M09 A2969 RMK A01 T01551091  RH  017%=      5-min Rain = 0
KHO1 230109Z 11007KT 16/M09 A2969 RMK A01 T01551091  RH  017%=      5-min Rain = 0
KHO1 230110Z 12008KT 16/M09 A2969 RMK A01 T01551090  RH  018%=      5-min Rain = 0
KHO1 230111Z 12007KT 16/M09 A2969 RMK A01 T01551090  RH  018%=      5-min Rain = 0
KHO1 230112Z 12006KT 16/M09 A2969 RMK A01 T01561090  RH  018%=      5-min Rain = 0
KHO1 230113Z 12006KT 16/M09 A2969 RMK A01 T01561089  RH  018%=      5-min Rain = 0
KHO1 230114Z 12005KT 16/M09 A2969 RMK A01 T01571088  RH  018%=      5-min Rain = 0
KHO1 230115Z 11006KT 16/M09 A2969 RMK A01 T01571088  RH  018%=      5-min Rain = 0
KHO1 230116Z 11007KT 16/M09 A2969 RMK A01 T01571088  RH  018%=      5-min Rain = 0
KHO1 230117Z 11006KT 16/M09 A2969 RMK A01 T01571088  RH  018%=      5-min Rain = 0
KHO1 230118Z 11006KT 16/M09 A2969 RMK A01 T01561087  RH  018%=      5-min Rain = 0
KHO1 230119Z 11007KT 16/M09 A2969 RMK A01 T01551086  RH  018%=      5-min Rain = 0
KHO1 230120Z 10006KT 16/M09 A2969 RMK A01 T01551087  RH  018%=      5-min Rain = 0
KHO1 230121Z 10006KT 15/M09 A2969 RMK A01 T01541087  RH  018%=      5-min Rain = 0
KHO1 230122Z 11006KT 15/M09 A2969 RMK A01 T01531086  RH  018%=      5-min Rain = 0
KHO1 230123Z 12006KT 15/M09 A2969 RMK A01 T01521086  RH  019%=      5-min Rain = 0
KHO1 230124Z 12005KT 15/M09 A2969 RMK A01 T01511085  RH  019%=      5-min Rain = 0
KHO1 230125Z 12005KT 15/M08 A2969 RMK A01 T01511084  RH  019%=      5-min Rain = 0
KHO1 230126Z 12005KT 15/M08 A2969 RMK A01 T01521083  RH  019%=      5-min Rain = 0
KHO1 230127Z 13005KT 15/M08 A2969 RMK A01 T01521082  RH  019%=      5-min Rain = 0
KHO1 230128Z 13004KT 15/M08 A2969 RMK A01 T01531081  RH  019%=      5-min Rain = 0
KHO1 230129Z 14005KT 15/M08 A2969 RMK A01 T01521081  RH  019%=      5-min Rain = 0
KHO1 230130Z 14004KT 15/M08 A2969 RMK A01 T01521079  RH  020%=      5-min Rain = 0
KHO1 230131Z 14004KT 15/M08 A2969 RMK A01 T01521078  RH  020%=      5-min Rain = 0
KHO1 230132Z 14003KT 15/M08 A297 RMK A01 T01531077  RH  020%=      5-min Rain = 0
KHO1 230133Z 14004KT 15/M08 A2969 RMK A01 T01541076  RH  020%=      5-min Rain = 0
KHO1 230134Z 14003KT 15/M08 A297 RMK A01 T01541076  RH  020%=      5-min Rain = 0
KHO1 230135Z 14003KT 15/M08 A297 RMK A01 T01541075  RH  020%=      5-min Rain = 0
KHO1 230136Z 15003KT 15/M07 A297 RMK A01 T01541074  RH  020%=      5-min Rain = 0
KHO1 230137Z 15002KT 15/M07 A297 RMK A01 T01541074  RH  020%=      5-min Rain = 0
KHO1 230138Z 15002KT 16/M07 A297 RMK A01 T01551073  RH  020%=      5-min Rain = 0
KHO1 230139Z 15002KT 16/M07 A297 RMK A01 T01551073  RH  020%=      5-min Rain = 0
KHO1 230140Z 14002KT 16/M07 A2971 RMK A01 T01551073  RH  020%=      5-min Rain = 0
KHO1 230141Z 15002KT 16/M07 A2971 RMK A01 T01551072  RH  020%=      5-min Rain = 0
KHO1 230142Z 14001KT 16/M07 A2971 RMK A01 T01551071  RH  020%=      5-min Rain = 0
KHO1 230143Z 15001KT 16/M07 A2971 RMK A01 T01551071  RH  020%=      5-min Rain = 0
KHO1 230144Z 15000KT 16/M07 A2971 RMK A01 T01551071  RH  020%=      5-min Rain = 0
KHO1 230145Z 15000KT 16/M07 A2971 RMK A01 T01551071  RH  020%=      5-min Rain = 0
KHO1 230146Z 00000KT 16/M07 A2971 RMK A01 T01551071  RH  021%=      5-min Rain = 0
KHO1 230147Z 00000KT 16/M07 A2971 RMK A01 T01551070  RH  021%=      5-min Rain = 0
KHO1 230148Z 26000KT 15/M07 A2971 RMK A01 T01541069  RH  021%=      5-min Rain = 0
KHO1 230149Z 26000KT 15/M07 A2971 RMK A01 T01541069  RH  021%=      5-min Rain = 0
KHO1 230150Z 00000KT 15/M07 A2972 RMK A01 T01531069  RH  021%=      5-min Rain = 0
KHO1 230151Z 27000KT 15/M07 A2972 RMK A01 T01531069  RH  021%=      5-min Rain = 0
KHO1 230152Z 31001KT 15/M07 A2972 RMK A01 T01521070  RH  021%=      5-min Rain = 0
KHO1 230153Z 31002KT 15/M07 A2972 RMK A01 T01511069  RH  021%=      5-min Rain = 0
KHO1 230154Z 32002KT 15/M07 A2972 RMK A01 T01491068  RH  022%=      5-min Rain = 0
KHO1 230155Z 34004KT 15/M07 A2972 RMK A01 T01461067  RH  022%=      5-min Rain = 0
KHO1 230156Z 35005KT 14/M06 A2972 RMK A01 T01441061  RH  024%=      5-min Rain = 0
KHO1 230157Z 35005KT 14/M06 A2972 RMK A01 T01411062  RH  024%=      5-min Rain = 0
KHO1 230158Z 01005KT 14/M07 A2973 RMK A01 T01401065  RH  024%=      5-min Rain = 0
KHO1 230159Z 02010KT 14/M06 A2973 RMK A01 T01391063  RH  024%=      5-min Rain = 0
KHO1 230200Z 03010KT 14/M03 A2974 RMK A01 T01381030  RH  031%=      5-min Rain = 0
KHO1 230201Z 04011KT 14/00 A2974 RMK A01 T013600-0  RH  039%=      5-min Rain = 0
KHO1 230202Z 05008KT 13/01 A2974 RMK A01 T01340009  RH  042%=      5-min Rain = 0
KHO1 230203Z 05009KT 13/02 A2974 RMK A01 T01330019  RH  046%=      5-min Rain = 0
KHO1 230204Z 05011KT 13/03 A2974 RMK A01 T01320026  RH  049%=      5-min Rain = 0
KHO1 230205Z 05011KT 13/03 A2974 RMK A01 T01310026  RH  049%=      5-min Rain = 0
KHO1 230206Z 05008KT 13/03 A2974 RMK A01 T01300027  RH  050%=      5-min Rain = 0
KHO1 230207Z 05007KT 13/03 A2974 RMK A01 T01300028  RH  050%=      5-min Rain = 0
KHO1 230208Z 05008KT 13/03 A2974 RMK A01 T01290032  RH  051%=      5-min Rain = 0
KHO1 230209Z 05006KT 13/03 A2974 RMK A01 T01290033  RH  052%=      5-min Rain = 0
KHO1 230210Z 05007KT 13/03 A2974 RMK A01 T01290034  RH  053%=      5-min Rain = 0
KHO1 230211Z 06009KT 13/04 A2974 RMK A01 T01290040  RH  055%=      5-min Rain = 0
KHO1 230212Z 05009KT 13/04 A2974 RMK A01 T01290042  RH  056%=      5-min Rain = 0
KHO1 230213Z 05009KT 13/04 A2974 RMK A01 T01280041  RH  056%=      5-min Rain = 0
KHO1 230214Z 04006KT 13/04 A2974 RMK A01 T01280042  RH  056%=      5-min Rain = 0
KHO1 230215Z 05007KT 13/04 A2974 RMK A01 T01270043  RH  056%=      5-min Rain = 0
KHO1 230216Z 04008KT 13/05 A2974 RMK A01 T01270046  RH  057%=      5-min Rain = 0
KHO1 230217Z 05007KT 13/05 A2974 RMK A01 T01270050  RH  059%=      5-min Rain = 0
KHO1 230218Z 06006KT 13/05 A2974 RMK A01 T01280052  RH  060%=      5-min Rain = 0
KHO1 230219Z 06006KT 13/05 A2974 RMK A01 T01280053  RH  060%=      5-min Rain = 0
KHO1 230220Z 05007KT 13/05 A2974 RMK A01 T01280053  RH  061%=      5-min Rain = 0
KHO1 230221Z 05006KT 13/05 A2974 RMK A01 T01270054  RH  061%=      5-min Rain = 0
KHO1 230222Z 06006KT 13/05 A2973 RMK A01 T01270054  RH  061%=      5-min Rain = 0
KHO1 230223Z 05007KT 13/05 A2973 RMK A01 T01270054  RH  061%=      5-min Rain = 0
KHO1 230224Z 05008KT 13/06 A2973 RMK A01 T01260056  RH  062%=      5-min Rain = 0
KHO1 230225Z 06006KT 13/06 A2973 RMK A01 T01250057  RH  063%=      5-min Rain = 0
KHO1 230226Z 06006KT 12/06 A2973 RMK A01 T01240056  RH  063%=      5-min Rain = 0
KHO1 230227Z 05008KT 12/06 A2973 RMK A01 T01240057  RH  064%=      5-min Rain = 0
KHO1 230228Z 05007KT 12/06 A2972 RMK A01 T01230057  RH  064%=      5-min Rain = 0
KHO1 230229Z 06009KT 12/06 A2972 RMK A01 T01220057  RH  064%=      5-min Rain = 0
KHO1 230230Z 07007KT 12/06 A2973 RMK A01 T01210057  RH  065%=      5-min Rain = 0
KHO1 230231Z 07008KT 12/06 A2972 RMK A01 T01210057  RH  065%=      5-min Rain = 0
KHO1 230232Z 08008G15KT 12/06 A2972 RMK A01 T01200057  RH  065%=      5-min Rain = 0
KHO1 230233Z 09010KT 12/06 A2972 RMK A01 T01200057  RH  065%=      5-min Rain = 0
KHO1 230234Z 08009KT 12/06 A2972 RMK A01 T01190057  RH  066%=      5-min Rain = 0
KHO1 230235Z 08009KT 12/06 A2972 RMK A01 T01190057  RH  066%=      5-min Rain = 0
KHO1 230236Z 08007KT 12/06 A2972 RMK A01 T01180057  RH  066%=      5-min Rain = 0
KHO1 230237Z 08008KT 12/06 A2972 RMK A01 T01180056  RH  066%=      5-min Rain = 0
KHO1 230238Z 08009KT 12/06 A2972 RMK A01 T01180057  RH  066%=      5-min Rain = 0
KHO1 230239Z 08009KT 12/06 A2972 RMK A01 T01170057  RH  067%=      5-min Rain = 0
KHO1 230240Z 08010KT 12/06 A2971 RMK A01 T01160057  RH  067%=      5-min Rain = 0
KHO1 230241Z 07010KT 12/06 A2971 RMK A01 T01150057  RH  067%=      5-min Rain = 0
KHO1 230242Z 07009KT 11/06 A2971 RMK A01 T01140057  RH  068%=      5-min Rain = 0
KHO1 230243Z 07011KT 11/06 A2971 RMK A01 T01130057  RH  068%=      5-min Rain = 0
KHO1 230244Z 07009KT 11/06 A2971 RMK A01 T01130057  RH  068%=      5-min Rain = 0
KHO1 230245Z 08011KT 11/06 A2971 RMK A01 T01120057  RH  069%=      5-min Rain = 0
KHO1 230246Z 06009KT 11/06 A2971 RMK A01 T01120057  RH  069%=      5-min Rain = 0
KHO1 230247Z 07009KT 11/06 A2971 RMK A01 T01110057  RH  069%=      5-min Rain = 0
KHO1 230248Z 07009KT 11/06 A2971 RMK A01 T01100057  RH  070%=      5-min Rain = 0
KHO1 230249Z 07008KT 11/06 A2971 RMK A01 T01090057  RH  070%=      5-min Rain = 0
KHO1 230250Z 10013G18KT 11/05 A2972 RMK A01 T01090054  RH  069%=      5-min Rain = 0
KHO1 230251Z 10014G21KT 11/05 A2972 RMK A01 T01100052  RH  067%=      5-min Rain = 0
KHO1 230252Z 09012KT 11/05 A2973 RMK A01 T01120054  RH  068%=      5-min Rain = 0
KHO1 230253Z 08011KT 11/06 A2973 RMK A01 T01110056  RH  069%=      5-min Rain = 0
KHO1 230254Z 07010KT 11/06 A2972 RMK A01 T01100056  RH  069%=      5-min Rain = 0
KHO1 230255Z 06016KT 11/06 A297 RMK A01 T01090057  RH  070%=      5-min Rain = 0
KHO1 230256Z 06013KT 11/06 A2971 RMK A01 T01070057  RH  071%=      5-min Rain = 0
KHO1 230257Z 04012KT 11/06 A297 RMK A01 T01060058  RH  072%=      5-min Rain = 0
KHO1 230258Z 06009KT 11/06 A297 RMK A01 T01050058  RH  072%=      5-min Rain = 0
KHO1 230259Z 06009KT 11/06 A297 RMK A01 T01050058  RH  073%=      5-min Rain = 0
KHO1 230300Z 07008KT 10/06 A2969 RMK A01 T01040058  RH  073%=      5-min Rain = 0
KHO1 230301Z 08008KT 10/06 A2968 RMK A01 T01040058  RH  073%=      5-min Rain = 0
KHO1 230302Z 08013G18KT 10/06 A2968 RMK A01 T01030057  RH  073%=      5-min Rain = 0
KHO1 230303Z 09014KT 10/05 A2968 RMK A01 T01030054  RH  072%=      5-min Rain = 0
KHO1 230304Z 10014KT 10/05 A2969 RMK A01 T01030054  RH  072%=      5-min Rain = 0
KHO1 230305Z 10017KT 10/05 A297 RMK A01 T01040054  RH  071%=      5-min Rain = 0
KHO1 230306Z 10017G22KT 10/05 A297 RMK A01 T01040054  RH  071%=      5-min Rain = 0
KHO1 230307Z 09015G20KT 11/05 A297 RMK A01 T01050054  RH  071%=      5-min Rain = 0
KHO1 230308Z 08013KT 11/05 A2969 RMK A01 T01050054  RH  070%=      5-min Rain = 0
KHO1 230309Z 08012KT 11/05 A2969 RMK A01 T01050054  RH  071%=      5-min Rain = 0
KHO1 230310Z 08010KT 10/06 A2969 RMK A01 T01040055  RH  071%=      5-min Rain = 0
KHO1 230311Z 08010KT 10/06 A2969 RMK A01 T01040056  RH  072%=      5-min Rain = 0
KHO1 230312Z 08010KT 10/06 A2969 RMK A01 T01030056  RH  073%=      5-min Rain = 0
KHO1 230313Z 08010KT 10/06 A2969 RMK A01 T01020057  RH  073%=      5-min Rain = 0
KHO1 230314Z 08011KT 10/06 A2968 RMK A01 T01010057  RH  074%=      5-min Rain = 0
KHO1 230315Z 08010KT 10/06 A2968 RMK A01 T01010057  RH  074%=      5-min Rain = 0
KHO1 230316Z 08009KT 10/06 A2967 RMK A01 T01000057  RH  075%=      5-min Rain = 0
KHO1 230317Z 08009KT 10/06 A2967 RMK A01 T00990057  RH  075%=      5-min Rain = 0
KHO1 230318Z 08010KT 10/06 A2968 RMK A01 T00990057  RH  075%=      5-min Rain = 0
KHO1 230319Z 10013KT 10/06 A2968 RMK A01 T00980057  RH  076%=      5-min Rain = 0
KHO1 230320Z 09012KT 10/06 A2968 RMK A01 T00980057  RH  076%=      5-min Rain = 0
KHO1 230321Z 09015G21KT 10/06 A2969 RMK A01 T00970058  RH  076%=      5-min Rain = 0
KHO1 230322Z 09013G21KT 10/06 A2969 RMK A01 T00970058  RH  077%=      5-min Rain = 0
KHO1 230323Z 09011KT 10/06 A2969 RMK A01 T00960058  RH  077%=      5-min Rain = 0
KHO1 230324Z 09010G17KT 10/06 A2969 RMK A01 T00960058  RH  077%=      5-min Rain = 0
KHO1 230325Z 08010G16KT 10/06 A2968 RMK A01 T00950058  RH  078%=      5-min Rain = 0
KHO1 230326Z 08010KT 10/06 A2968 RMK A01 T00950059  RH  078%=      5-min Rain = 0
KHO1 230327Z 09010KT 10/06 A2969 RMK A01 T00950059  RH  078%=      5-min Rain = 0
KHO1 230328Z 09009KT 10/06 A2969 RMK A01 T00950059  RH  078%=      5-min Rain = 0
KHO1 230329Z 09012KT 10/06 A2969 RMK A01 T00950059  RH  078%=      5-min Rain = 0
KHO1 230330Z 09010G15KT 09/06 A297 RMK A01 T00940059  RH  078%=      5-min Rain = 0
KHO1 230331Z 09009KT 09/06 A297 RMK A01 T00940058  RH  078%=      5-min Rain = 0
KHO1 230332Z 09010KT 09/06 A297 RMK A01 T00940058  RH  079%=      5-min Rain = 0
KHO1 230333Z 08009KT 09/06 A297 RMK A01 T00930058  RH  079%=      5-min Rain = 0
KHO1 230334Z 08010KT 09/06 A297 RMK A01 T00930059  RH  079%=      5-min Rain = 0
KHO1 230335Z 09009KT 09/06 A2971 RMK A01 T00920059  RH  080%=      5-min Rain = 0
KHO1 230336Z 08009KT 09/06 A2971 RMK A01 T00920059  RH  080%=      5-min Rain = 0
KHO1 230337Z 09007KT 09/06 A2972 RMK A01 T00920059  RH  080%=      5-min Rain = 0
KHO1 230338Z 08006G11KT 09/06 A2972 RMK A01 T00920060  RH  080%=      5-min Rain = 0
KHO1 230339Z 09009KT 09/06 A2972 RMK A01 T00920060  RH  081%=      5-min Rain = 0
KHO1 230340Z 09009KT 09/06 A2972 RMK A01 T00910060  RH  081%=      5-min Rain = 0
KHO1 230341Z 09007KT 09/06 A2973 RMK A01 T00910060  RH  081%=      5-min Rain = 0
KHO1 230342Z 09009G14KT 09/06 A2972 RMK A01 T00910060  RH  081%=      5-min Rain = 0
KHO1 230343Z 09009KT 09/06 A2972 RMK A01 T00910061  RH  081%=      5-min Rain = 0
KHO1 230344Z 09007G13KT 09/06 A2973 RMK A01 T00910061  RH  082%=      5-min Rain = 0
KHO1 230345Z 09010KT 09/06 A2973 RMK A01 T00910061  RH  082%=      5-min Rain = 0
KHO1 230346Z 08007KT 09/06 A2973 RMK A01 T00900061  RH  082%=      5-min Rain = 0
KHO1 230347Z 09007KT 09/06 A2973 RMK A01 T00900061  RH  082%=      5-min Rain = 0
KHO1 230348Z 09007KT 09/06 A2973 RMK A01 T00900061  RH  082%=      5-min Rain = 0
KHO1 230349Z 09011G18KT 09/06 A2973 RMK A01 T00900062  RH  083%=      5-min Rain = 0
KHO1 230350Z 09011G17KT 09/06 A2972 RMK A01 T00900062  RH  083%=      5-min Rain = 0
KHO1 230351Z 10013KT 09/06 A2972 RMK A01 T00890063  RH  083%=      5-min Rain = 0
KHO1 230352Z 09009G17KT 09/06 A2972 RMK A01 T00890063  RH  084%=      5-min Rain = 0
KHO1 230353Z 09010G15KT 09/06 A2972 RMK A01 T00890063  RH  084%=      5-min Rain = 0
KHO1 230354Z 09012G18KT 09/06 A2972 RMK A01 T00890063  RH  084%=      5-min Rain = 0
KHO1 230355Z 08009KT 09/06 A2972 RMK A01 T00890063  RH  084%=      5-min Rain = 0
KHO1 230356Z 09009KT 09/06 A2972 RMK A01 T00880063  RH  084%=      5-min Rain = 0
KHO1 230357Z 09012KT 09/06 A2972 RMK A01 T00880064  RH  085%=      5-min Rain = 0
KHO1 230358Z 09012G18KT 09/06 A2972 RMK A01 T00880064  RH  085%=      5-min Rain = 0
KHO1 230359Z 09012KT 09/06 A2972 RMK A01 T00880064  RH  085%=      5-min Rain = 0
KHO1 230400Z 09010G17KT 09/06 A2972 RMK A01 T00880064  RH  085%=      5-min Rain = 0
KHO1 230401Z 10010KT 09/06 A2972 RMK A01 T00870064  RH  085%=      5-min Rain = 0
KHO1 230402Z 09009KT 09/06 A2972 RMK A01 T00870064  RH  085%=      5-min Rain = 0
KHO1 230403Z 10011KT 09/06 A2972 RMK A01 T00870064  RH  086%=      5-min Rain = 0
KHO1 230404Z 10013KT 09/06 A2972 RMK A01 T00870064  RH  086%=      5-min Rain = 0
KHO1 230405Z 10012KT 09/06 A2972 RMK A01 T00870064  RH  086%=      5-min Rain = 0
KHO1 230406Z 10013KT 09/07 A2972 RMK A01 T00870065  RH  086%=      5-min Rain = 0
KHO1 230407Z 11016KT 09/07 A2972 RMK A01 T00870065  RH  086%=      5-min Rain = 0
KHO1 230408Z 11017KT 09/07 A2972 RMK A01 T00870066  RH  087%=      5-min Rain = 0
KHO1 230409Z 11015KT 09/07 A2972 RMK A01 T00870066  RH  087%=      5-min Rain = 0
KHO1 230410Z 10015KT 09/07 A2972 RMK A01 T00860066  RH  087%=      5-min Rain = 0
KHO1 230411Z 10015KT 09/07 A2972 RMK A01 T00860066  RH  087%=      5-min Rain = 0
KHO1 230412Z 11016KT 09/07 A2972 RMK A01 T00860066  RH  087%=      5-min Rain = 0
KHO1 230413Z 11013KT 09/07 A2972 RMK A01 T00860067  RH  088%=      5-min Rain = 0
KHO1 230414Z 12016KT 09/07 A2973 RMK A01 T00860067  RH  088%=      5-min Rain = 0
KHO1 230415Z 11017KT 09/07 A2973 RMK A01 T00860068  RH  088%=      5-min Rain = 0
KHO1 230416Z 10018KT 09/07 A2972 RMK A01 T00860068  RH  089%=      5-min Rain = 0
KHO1 230417Z 11017G22KT 09/07 A2972 RMK A01 T00860068  RH  089%=      5-min Rain = 0
KHO1 230418Z 11016KT 09/07 A2972 RMK A01 T00850068  RH  089%=      5-min Rain = 0
KHO1 230419Z 11017KT 09/07 A2972 RMK A01 T00850069  RH  089%=      5-min Rain = 0
KHO1 230420Z 11017KT 09/07 A2972 RMK A01 T00850069  RH  090%=      5-min Rain = 0
KHO1 230421Z 11016KT 09/07 A2972 RMK A01 T00850070  RH  090%=      5-min Rain = 0
KHO1 230422Z 11016KT 09/07 A2973 RMK A01 T00850070  RH  090%=      5-min Rain = 0
KHO1 230423Z 11016KT 09/07 A2973 RMK A01 T00850070  RH  090%=      5-min Rain = 0
KHO1 230424Z 11015KT 09/07 A2973 RMK A01 T00850070  RH  091%=      5-min Rain = 0
KHO1 230425Z 11017KT 09/07 A2972 RMK A01 T00850070  RH  091%=      5-min Rain = 0
KHO1 230426Z 11018KT 09/07 A2972 RMK A01 T00850071  RH  091%=      5-min Rain = 0
KHO1 230427Z 11017KT 08/07 A2972 RMK A01 T00840071  RH  091%=      5-min Rain = 0
KHO1 230428Z 11019KT 08/07 A2972 RMK A01 T00840071  RH  091%=      5-min Rain = 0
KHO1 230429Z 11016KT 08/07 A2972 RMK A01 T00840071  RH  092%=      5-min Rain = 0
KHO1 230430Z 11014KT 08/07 A2973 RMK A01 T00840072  RH  092%=      5-min Rain = 0
KHO1 230431Z 11016KT 08/07 A2973 RMK A01 T00840072  RH  092%=      5-min Rain = 0
KHO1 230432Z 11015KT 08/07 A2974 RMK A01 T00840072  RH  092%=      5-min Rain = 0
KHO1 230433Z 12016KT 08/07 A2973 RMK A01 T00840072  RH  092%=      5-min Rain = 0
KHO1 230434Z 11014KT 08/07 A2973 RMK A01 T00840072  RH  092%=      5-min Rain = 0
KHO1 230435Z 12016KT 08/07 A2974 RMK A01 T00840072  RH  093%=      5-min Rain = 0
KHO1 230436Z 12012KT 08/07 A2974 RMK A01 T00840072  RH  093%=      5-min Rain = 0
KHO1 230437Z 12010G15KT 08/07 A2974 RMK A01 T00840073  RH  093%=      5-min Rain = 0
KHO1 230438Z 11011KT 08/07 A2974 RMK A01 T00840072  RH  093%=      5-min Rain = 0
KHO1 230439Z 12015KT 08/07 A2974 RMK A01 T00840073  RH  093%=      5-min Rain = 0
KHO1 230440Z 12016KT 08/07 A2974 RMK A01 T00840073  RH  093%=      5-min Rain = 0
KHO1 230441Z 11014KT 08/07 A2974 RMK A01 T00840073  RH  093%=      5-min Rain = 0
KHO1 230442Z 12013KT 08/07 A2975 RMK A01 T00840073  RH  093%=      5-min Rain = 0
KHO1 230443Z 12012KT 08/07 A2975 RMK A01 T00840073  RH  093%=      5-min Rain = 0
KHO1 230444Z 12012KT 08/07 A2975 RMK A01 T00840073  RH  093%=      5-min Rain = 0
KHO1 230445Z 12010KT 08/07 A2975 RMK A01 T00840073  RH  093%=      5-min Rain = 0
KHO1 230446Z 12012KT 08/07 A2975 RMK A01 T00840073  RH  093%=      5-min Rain = 0
KHO1 230447Z 12010KT 08/07 A2975 RMK A01 T00840073  RH  093%=      5-min Rain = 0
KHO1 230448Z 12009KT 08/07 A2975 RMK A01 T00840073  RH  093%=      5-min Rain = 0
KHO1 230449Z 13008KT 08/07 A2975 RMK A01 T00840073  RH  093%=      5-min Rain = 0
KHO1 230450Z 12008KT 08/07 A2975 RMK A01 T00840073  RH  093%=      5-min Rain = 0
KHO1 230451Z 12010KT 08/07 A2975 RMK A01 T00840073  RH  093%=      5-min Rain = 0
KHO1 230452Z 13007KT 08/07 A2976 RMK A01 T00840074  RH  093%=      5-min Rain = 0
KHO1 230453Z 12008KT 08/07 A2976 RMK A01 T00840074  RH  093%=      5-min Rain = 0
KHO1 230454Z 13009KT 09/07 A2976 RMK A01 T00850074  RH  093%=      5-min Rain = 0
KHO1 230455Z 12007KT 08/07 A2976 RMK A01 T00840074  RH  093%=      5-min Rain = 0
KHO1 230456Z 14004KT 09/07 A2977 RMK A01 T00850074  RH  093%=      5-min Rain = 0
KHO1 230457Z 13004KT 09/07 A2977 RMK A01 T00850074  RH  093%=      5-min Rain = 0
KHO1 230458Z 13006KT 09/07 A2977 RMK A01 T00850074  RH  093%=      5-min Rain = 0
KHO1 230459Z 13007KT 09/08 A2976 RMK A01 T00850075  RH  093%=      5-min Rain = 0
KHO1 230500Z 13010KT 09/08 A2976 RMK A01 T00850075  RH  094%=      5-min Rain = 0
KHO1 230501Z 13008KT 09/08 A2976 RMK A01 T00850075  RH  094%=      5-min Rain = 0
KHO1 230502Z 13009KT 09/08 A2976 RMK A01 T00850076  RH  094%=      5-min Rain = 0
KHO1 230503Z 13010KT 09/08 A2976 RMK A01 T00850076  RH  094%=      5-min Rain = 0
KHO1 230504Z 13008KT 09/08 A2976 RMK A01 T00850076  RH  095%=      5-min Rain = 0
KHO1 230505Z 13008KT 09/08 A2976 RMK A01 T00850077  RH  095%=      5-min Rain = 0
KHO1 230506Z 14008KT 09/08 A2976 RMK A01 T00850077  RH  095%=      5-min Rain = 0
KHO1 230507Z 15006KT 09/08 A2977 RMK A01 T00850077  RH  095%=      5-min Rain = 0
KHO1 230508Z 15006KT 09/08 A2977 RMK A01 T00850077  RH  095%=      5-min Rain = 0
KHO1 230509Z 18004KT 09/08 A2978 RMK A01 T00850077  RH  095%=      5-min Rain = 0
KHO1 230510Z 22004KT 09/08 A2978 RMK A01 T00850078  RH  095%=      5-min Rain = 0
KHO1 230511Z 27007KT 09/08 A2979 RMK A01 T00850078  RH  095%=      5-min Rain = 0
KHO1 230512Z 28011KT 09/08 A2979 RMK A01 T00850078  RH  095%=      5-min Rain = 0
KHO1 230513Z 28010KT 09/08 A2979 RMK A01 T00850078  RH  095%=      5-min Rain = 0
KHO1 230514Z 28010KT 09/08 A2979 RMK A01 T00850079  RH  096%=      5-min Rain = 0
KHO1 230515Z 28012KT 09/08 A2979 RMK A01 T00850078  RH  095%=      5-min Rain = 0
KHO1 230516Z 27008KT 09/08 A2979 RMK A01 T00850078  RH  095%=      5-min Rain = 0
KHO1 230517Z 24004KT 09/08 A2979 RMK A01 T00850077  RH  095%=      5-min Rain = 0
KHO1 230518Z 23005KT 09/08 A2979 RMK A01 T00850077  RH  095%=      5-min Rain = 0
KHO1 230519Z 24007KT 09/08 A2979 RMK A01 T00860077  RH  095%=      5-min Rain = 0
KHO1 230520Z 25008KT 09/08 A2979 RMK A01 T00860077  RH  094%=      5-min Rain = 0
KHO1 230521Z 23005KT 09/08 A2979 RMK A01 T00860077  RH  094%=      5-min Rain = 0
KHO1 230522Z 20006KT 09/08 A2978 RMK A01 T00860077  RH  094%=      5-min Rain = 0
KHO1 230523Z 19002KT 09/08 A2978 RMK A01 T00860077  RH  094%=      5-min Rain = 0
KHO1 230524Z 20003KT 09/08 A2978 RMK A01 T00860077  RH  094%=      5-min Rain = 0
KHO1 230525Z 21005KT 09/08 A2978 RMK A01 T00860077  RH  094%=      5-min Rain = 0
KHO1 230526Z 21006G13KT 09/08 A2978 RMK A01 T00850076  RH  094%=      5-min Rain = 0
KHO1 230527Z 23014KT 09/08 A2978 RMK A01 T00860076  RH  094%=      5-min Rain = 0
KHO1 230528Z 27007KT 09/08 A2978 RMK A01 T00870076  RH  093%=      5-min Rain = 0
KHO1 230529Z 25006KT 09/08 A2979 RMK A01 T00870076  RH  093%=      5-min Rain = 0
KHO1 230530Z 23005KT 09/08 A2979 RMK A01 T00860076  RH  093%=      5-min Rain = 0
KHO1 230531Z 22005KT 09/08 A2979 RMK A01 T00860076  RH  093%=      5-min Rain = 0
KHO1 230532Z 24006KT 09/08 A2979 RMK A01 T00860076  RH  093%=      5-min Rain = 0
KHO1 230533Z 23007KT 09/08 A2979 RMK A01 T00850075  RH  094%=      5-min Rain = 0
KHO1 230534Z 21007KT 09/08 A2979 RMK A01 T00850076  RH  094%=      5-min Rain = 0
KHO1 230535Z 21007KT 09/08 A2979 RMK A01 T00850076  RH  094%=      5-min Rain = 0
KHO1 230536Z 21007KT 09/08 A2979 RMK A01 T00850075  RH  094%=      5-min Rain = 0
KHO1 230537Z 21006KT 09/08 A2979 RMK A01 T00850076  RH  094%=      5-min Rain = 0
KHO1 230538Z 22005KT 09/08 A2979 RMK A01 T00850075  RH  094%=      5-min Rain = 0
KHO1 230539Z 23006KT 09/08 A298 RMK A01 T00850075  RH  094%=      5-min Rain = 0
KHO1 230540Z 23007KT 08/08 A298 RMK A01 T00840075  RH  094%=      5-min Rain = 0
KHO1 230541Z 23008KT 08/08 A298 RMK A01 T00840076  RH  094%=      5-min Rain = 0
KHO1 230542Z 23009KT 08/08 A298 RMK A01 T00840076  RH  094%=      5-min Rain = 0
KHO1 230543Z 23009KT 08/08 A298 RMK A01 T00840076  RH  094%=      5-min Rain = 0
KHO1 230544Z 23011KT 08/08 A298 RMK A01 T00840076  RH  094%=      5-min Rain = 0
KHO1 230545Z 23011KT 08/08 A298 RMK A01 T00840076  RH  095%=      5-min Rain = 0
KHO1 230546Z 23009KT 08/08 A298 RMK A01 T00840076  RH  095%=      5-min Rain = 0
KHO1 230547Z 24011KT 08/08 A2979 RMK A01 T00840075  RH  095%=      5-min Rain = 0
KHO1 230548Z 25011KT 08/07 A2979 RMK A01 T00830074  RH  094%=      5-min Rain = 0
KHO1 230549Z 25015KT 08/07 A2979 RMK A01 T00830068  RH  090%=      5-min Rain = 0
KHO1 230550Z 26018G24KT 09/06 A2979 RMK A01 T00850056  RH  082%=      5-min Rain = 0
KHO1 230551Z 26019KT 09/04 A2979 RMK A01 T00880040  RH  072%=      5-min Rain = 0
KHO1 230552Z 27019KT 09/03 A2979 RMK A01 T00910030  RH  066%=      5-min Rain = 0
KHO1 230553Z 26021G31KT 09/02 A2979 RMK A01 T00920020  RH  061%=      5-min Rain = 0
KHO1 230554Z 26025G31KT 09/01 A2979 RMK A01 T00930008  RH  056%=      5-min Rain = 0
KHO1 230555Z 26021KT 09/01 A2979 RMK A01 T00920010  RH  056%=      5-min Rain = 0
KHO1 230556Z 26022KT 09/01 A2979 RMK A01 T00910009  RH  056%=      5-min Rain = 0
KHO1 230557Z 26022KT 09/01 A2979 RMK A01 T00900007  RH  056%=      5-min Rain = 0
KHO1 230558Z 26022KT 09/01 A2979 RMK A01 T00890005  RH  055%=      5-min Rain = 0
KHO1 230559Z 26020G25KT 09/01 A298 RMK A01 T00890006  RH  056%=      5-min Rain = 0

Page generated in 0.3919 seconds.